Time,TemperatureF,DewpointF,PressureIn,WindDirection,WindDirectionDegrees,WindSpeedMPH,WindSpeedGustMPH,Humidity,HourlyPrecipIn,Conditions,Clouds,dailyrainin,SolarRadiationWatts/m^2,SoftwareType,DateUTC
2013-06-05 00:03:00,83.1,38.6,29.26,WSW,247,5.2,6.0,20,-99.99,,,0.00,0,rob ver 1A,2013-06-05 07:03:00,
2013-06-05 00:08:00,82.1,38.8,29.26,WSW,242,4.5,5.2,21,-99.99,,,0.00,0,rob ver 1A,2013-06-05 07:08:00,
2013-06-05 00:14:00,81.7,39.0,29.26,West,275,3.1,3.5,21,-99.99,,,0.00,0,rob ver 1A,2013-06-05 07:14:00,
2013-06-05 00:20:00,81.2,39.0,29.26,NNW,327,4.6,5.4,22,-99.99,,,0.00,0,rob ver 1A,2013-06-05 07:20:00,
2013-06-05 00:25:00,81.8,39.3,29.26,WNW,298,5.4,6.5,22,-99.99,,,0.00,0,rob ver 1A,2013-06-05 07:25:00,
2013-06-05 00:30:00,82.1,39.4,29.26,WNW,292,3.4,5.2,21,-99.99,,,0.00,0,rob ver 1A,2013-06-05 07:30:00,
2013-06-05 00:36:00,82.6,39.1,29.26,SW,235,2.5,3.6,21,-99.99,,,0.00,0,rob ver 1A,2013-06-05 07:36:00,
2013-06-05 00:42:00,82.9,38.1,29.26,SSW,210,4.5,6.0,20,-99.99,,,0.00,0,rob ver 1A,2013-06-05 07:42:00,
2013-06-05 00:47:00,83.0,37.9,29.26,SW,219,3.9,4.7,20,-99.99,,,0.00,0,rob ver 1A,2013-06-05 07:47:00,
2013-06-05 00:52:00,82.2,37.4,29.26,SW,233,3.1,3.7,20,-99.99,,,0.00,0,rob ver 1A,2013-06-05 07:52:00,
2013-06-05 00:58:00,81.8,38.0,29.26,West,259,1.9,2.4,21,-99.99,,,0.00,0,rob ver 1A,2013-06-05 07:58:00,
2013-06-05 01:03:00,81.9,38.1,29.26,West,280,2.6,3.4,20,-99.99,,,0.00,0,rob ver 1A,2013-06-05 08:03:00,
2013-06-05 01:09:00,82.1,37.8,29.26,WSW,252,2.7,3.8,20,-99.99,,,0.00,0,rob ver 1A,2013-06-05 08:09:00,
2013-06-05 01:15:00,82.4,37.6,29.26,WNW,285,2.0,2.5,20,-99.99,,,0.00,0,rob ver 1A,2013-06-05 08:15:00,
2013-06-05 01:20:00,82.3,37.6,29.26,WNW,290,0.8,1.2,20,-99.99,,,0.00,0,rob ver 1A,2013-06-05 08:20:00,
2013-06-05 01:25:00,82.1,37.7,29.26,SSW,201,2.1,3.4,20,-99.99,,,0.00,0,rob ver 1A,2013-06-05 08:25:00,
2013-06-05 01:31:00,81.7,37.6,29.26,WNW,287,1.4,2.0,20,-99.99,,,0.00,0,rob ver 1A,2013-06-05 08:31:00,
2013-06-05 01:36:00,81.3,37.7,29.26,WNW,298,2.1,2.3,21,-99.99,,,0.00,0,rob ver 1A,2013-06-05 08:36:00,
2013-06-05 01:41:00,81.3,38.0,29.26,North,3,1.4,1.7,21,-99.99,,,0.00,0,rob ver 1A,2013-06-05 08:41:00,
2013-06-05 01:46:00,81.0,37.7,29.26,NW,316,0.8,1.1,21,-99.99,,,0.00,0,rob ver 1A,2013-06-05 08:46:00,
2013-06-05 01:52:00,81.2,38.1,29.26,SW,227,1.7,2.1,21,-99.99,,,0.00,0,rob ver 1A,2013-06-05 08:52:00,
2013-06-05 01:57:00,81.5,38.4,29.26,West,264,2.2,2.6,21,-99.99,,,0.00,0,rob ver 1A,2013-06-05 08:57:00,
2013-06-05 02:03:00,81.4,38.3,29.26,West,280,1.7,2.2,21,-99.99,,,0.00,0,rob ver 1A,2013-06-05 09:03:00,
2013-06-05 02:08:00,81.1,38.5,29.26,WNW,293,2.3,2.4,21,-99.99,,,0.00,0,rob ver 1A,2013-06-05 09:08:00,
2013-06-05 02:14:00,81.4,38.5,29.26,WSW,243,3.5,4.9,21,-99.99,,,0.00,0,rob ver 1A,2013-06-05 09:14:00,
2013-06-05 02:20:00,80.7,38.2,29.26,SW,231,3.3,5.3,21,-99.99,,,0.00,0,rob ver 1A,2013-06-05 09:20:00,
2013-06-05 02:26:00,80.5,38.3,29.26,WSW,252,3.4,4.3,22,-99.99,,,0.00,0,rob ver 1A,2013-06-05 09:26:00,
2013-06-05 02:31:00,80.1,38.4,29.26,WSW,257,2.6,3.1,22,-99.99,,,0.00,0,rob ver 1A,2013-06-05 09:31:00,
2013-06-05 02:36:00,80.0,38.6,29.26,WSW,247,3.6,4.5,22,-99.99,,,0.00,0,rob ver 1A,2013-06-05 09:36:00,
2013-06-05 02:42:00,79.5,38.6,29.26,WSW,256,2.5,3.1,23,-99.99,,,0.00,0,rob ver 1A,2013-06-05 09:42:00,
2013-06-05 02:47:00,78.9,38.8,29.26,SW,225,2.1,3.4,23,-99.99,,,0.00,0,rob ver 1A,2013-06-05 09:47:00,
2013-06-05 02:53:00,78.7,39.1,29.26,SSW,211,2.5,3.1,24,-99.99,,,0.00,0,rob ver 1A,2013-06-05 09:53:00,
2013-06-05 02:59:00,78.7,39.2,29.26,SW,228,3.5,3.6,24,-99.99,,,0.00,0,rob ver 1A,2013-06-05 09:59:00,
2013-06-05 03:04:00,78.2,39.3,29.26,SW,225,3.7,4.0,24,-99.99,,,0.00,0,rob ver 1A,2013-06-05 10:04:00,
2013-06-05 03:09:00,77.6,38.6,29.26,South,172,1.0,2.2,24,-99.99,,,0.00,0,rob ver 1A,2013-06-05 10:09:00,
2013-06-05 03:15:00,77.4,38.0,29.26,NNE,13,3.4,3.7,23,-99.99,,,0.00,0,rob ver 1A,2013-06-05 10:15:00,
2013-06-05 03:20:00,77.8,37.7,29.26,NNE,28,2.0,2.2,23,-99.99,,,0.00,0,rob ver 1A,2013-06-05 10:20:00,
2013-06-05 03:26:00,77.6,37.4,29.26,North,1,2.2,2.7,23,-99.99,,,0.00,0,rob ver 1A,2013-06-05 10:26:00,
2013-06-05 03:31:00,77.5,36.8,29.26,North,359,2.5,2.6,23,-99.99,,,0.00,0,rob ver 1A,2013-06-05 10:31:00,
2013-06-05 03:37:00,77.8,37.0,29.26,NNW,334,2.3,2.6,23,-99.99,,,0.00,0,rob ver 1A,2013-06-05 10:37:00,
2013-06-05 03:42:00,77.5,37.2,29.26,NNW,345,4.0,4.3,23,-99.99,,,0.00,0,rob ver 1A,2013-06-05 10:42:00,
2013-06-05 03:48:00,77.2,36.9,29.26,North,354,2.9,3.3,23,-99.99,,,0.00,0,rob ver 1A,2013-06-05 10:48:00,
2013-06-05 03:53:00,76.8,37.0,29.26,NNW,336,1.5,2.0,23,-99.99,,,0.00,0,rob ver 1A,2013-06-05 10:53:00,
2013-06-05 03:58:00,77.7,37.3,29.26,NNW,327,2.2,2.8,23,-99.99,,,0.00,0,rob ver 1A,2013-06-05 10:58:00,
2013-06-05 04:03:00,78.1,37.8,29.26,NW,320,1.9,2.1,23,-99.99,,,0.00,0,rob ver 1A,2013-06-05 11:03:00,
2013-06-05 04:09:00,78.9,37.8,29.26,WNW,301,1.8,2.3,22,-99.99,,,0.00,0,rob ver 1A,2013-06-05 11:09:00,
2013-06-05 04:14:00,78.5,37.4,29.26,NNW,329,4.1,4.7,22,-99.99,,,0.00,0,rob ver 1A,2013-06-05 11:14:00,
2013-06-05 04:20:00,77.1,36.9,29.26,NNW,335,2.2,2.5,23,-99.99,,,0.00,0,rob ver 1A,2013-06-05 11:20:00,
2013-06-05 04:26:00,76.7,36.9,29.26,NW,306,1.8,2.3,23,-99.99,,,0.00,0,rob ver 1A,2013-06-05 11:26:00,
2013-06-05 04:31:00,77.1,36.5,29.26,WNW,301,3.0,3.6,23,-99.99,,,0.00,0,rob ver 1A,2013-06-05 11:31:00,
2013-06-05 04:36:00,77.4,37.5,29.26,West,281,2.6,2.8,23,-99.99,,,0.00,0,rob ver 1A,2013-06-05 11:36:00,
2013-06-05 04:42:00,77.4,36.8,29.26,NW,306,2.8,3.1,22,-99.99,,,0.00,0,rob ver 1A,2013-06-05 11:42:00,
2013-06-05 04:47:00,76.2,36.5,29.26,NW,313,2.5,2.9,23,-99.99,,,0.00,0,rob ver 1A,2013-06-05 11:47:00,
2013-06-05 04:53:00,76.0,36.7,29.26,NNW,334,2.9,3.2,24,-99.99,,,0.00,0,rob ver 1A,2013-06-05 11:53:00,
2013-06-05 04:58:00,77.0,37.2,29.26,NW,306,0.7,1.1,23,-99.99,,,0.00,0,rob ver 1A,2013-06-05 11:58:00,
2013-06-05 05:03:00,76.7,37.1,29.26,SSE,149,0.4,0.5,24,-99.99,,,0.00,0,rob ver 1A,2013-06-05 12:03:00,
2013-06-05 05:09:00,76.9,37.5,29.26,NNE,19,1.0,1.3,24,-99.99,,,0.00,0,rob ver 1A,2013-06-05 12:09:00,
2013-06-05 05:14:00,76.9,36.7,29.26,NE,40,2.0,2.1,23,-99.99,,,0.00,.328,rob ver 1A,2013-06-05 12:14:00,
2013-06-05 05:19:00,76.7,35.8,29.29,NE,53,2.7,3.2,22,-99.99,,,0.00,1.312,rob ver 1A,2013-06-05 12:19:00,
2013-06-05 05:25:00,74.8,34.8,29.29,NE,38,4.5,5.2,23,-99.99,,,0.00,2.625,rob ver 1A,2013-06-05 12:25:00,
2013-06-05 05:31:00,74.1,34.3,29.29,NE,34,4.6,4.7,23,-99.99,,,0.00,4.593,rob ver 1A,2013-06-05 12:31:00,
2013-06-05 05:36:00,73.4,34.0,29.29,NNE,26,3.3,4.0,23,-99.99,,,0.00,8.53,rob ver 1A,2013-06-05 12:36:00,
2013-06-05 05:42:00,74.6,34.9,29.29,North,5,3.9,4.3,23,-99.99,,,0.00,19.68,rob ver 1A,2013-06-05 12:42:00,
2013-06-05 05:48:00,74.3,34.5,29.29,North,7,3.4,3.7,23,-99.99,,,0.00,32.15,rob ver 1A,2013-06-05 12:48:00,
2013-06-05 05:53:00,75.0,34.9,29.29,NNE,22,3.8,4.1,23,-99.99,,,0.00,42.98,rob ver 1A,2013-06-05 12:53:00,
2013-06-05 05:58:00,75.4,35.3,29.29,NE,34,2.9,3.1,23,-99.99,,,0.00,54.46,rob ver 1A,2013-06-05 12:58:00,
2013-06-05 06:04:00,76.6,35.7,29.29,NE,37,3.1,3.4,22,-99.99,,,0.00,69.55,rob ver 1A,2013-06-05 13:04:00,
2013-06-05 06:09:00,76.6,35.1,29.29,NNE,31,3.8,4.0,22,-99.99,,,0.00,82.2,rob ver 1A,2013-06-05 13:09:00,
2013-06-05 06:15:00,76.8,35.4,29.29,North,352,3.2,3.5,22,-99.99,,,0.00,95.8,rob ver 1A,2013-06-05 13:15:00,
2013-06-05 06:20:00,77.4,35.1,29.29,North,8,2.9,3.2,21,-99.99,,,0.00,111.7,rob ver 1A,2013-06-05 13:20:00,
2013-06-05 06:25:00,78.2,35.2,29.29,NNE,18,2.1,2.3,20,-99.99,,,0.00,125.7,rob ver 1A,2013-06-05 13:25:00,
2013-06-05 06:31:00,79.3,35.7,29.29,NE,34,2.0,2.2,20,-99.99,,,0.00,143,rob ver 1A,2013-06-05 13:31:00,
2013-06-05 06:37:00,79.7,36.0,29.29,NE,48,2.3,2.6,20,-99.99,,,0.00,161.4,rob ver 1A,2013-06-05 13:37:00,
2013-06-05 06:43:00,80.2,35.7,29.29,NE,46,2.0,2.3,20,-99.99,,,0.00,180.3,rob ver 1A,2013-06-05 13:43:00,
2013-06-05 06:49:00,80.8,35.6,29.29,NE,41,2.4,2.9,19,-99.99,,,0.00,196.2,rob ver 1A,2013-06-05 13:49:00,
2013-06-05 06:55:00,81.0,35.5,29.29,ENE,60,2.7,3.7,19,-99.99,,,0.00,216.5,rob ver 1A,2013-06-05 13:55:00,
2013-06-05 07:00:00,82.0,35.3,29.29,ENE,57,2.5,3.2,18,-99.99,,,0.00,235.7,rob ver 1A,2013-06-05 14:00:00,
2013-06-05 07:05:00,82.4,35.1,29.29,ENE,68,2.3,3.0,18,-99.99,,,0.00,252.9,rob ver 1A,2013-06-05 14:05:00,
2013-06-05 07:10:00,82.7,35.4,29.29,ENE,72,2.9,3.5,18,-99.99,,,0.00,270.3,rob ver 1A,2013-06-05 14:10:00,
2013-06-05 07:16:00,83.1,35.4,29.29,ENE,73,2.3,3.0,17,-99.99,,,0.00,287.2,rob ver 1A,2013-06-05 14:16:00,
2013-06-05 07:22:00,82.6,35.6,29.29,ESE,117,2.6,3.4,18,-99.99,,,0.00,308.3,rob ver 1A,2013-06-05 14:22:00,
2013-06-05 07:27:00,82.8,35.6,29.29,SE,129,3.0,4.0,18,-99.99,,,0.00,328.9,rob ver 1A,2013-06-05 14:27:00,
2013-06-05 07:33:00,83.1,35.7,29.32,SE,127,3.8,4.5,18,-99.99,,,0.00,348.6,rob ver 1A,2013-06-05 14:33:00,
2013-06-05 07:39:00,83.7,35.9,29.32,ESE,114,3.1,3.9,18,-99.99,,,0.00,369.9,rob ver 1A,2013-06-05 14:39:00,
2013-06-05 07:45:00,83.6,35.6,29.32,SE,133,3.7,4.6,17,-99.99,,,0.00,390.8,rob ver 1A,2013-06-05 14:45:00,
2013-06-05 07:51:00,83.8,35.5,29.32,SE,124,4.3,5.8,17,-99.99,,,0.00,407.9,rob ver 1A,2013-06-05 14:51:00,
2013-06-05 07:56:00,84.3,35.3,29.32,SSE,150,4.9,5.7,17,-99.99,,,0.00,428.7,rob ver 1A,2013-06-05 14:56:00,
2013-06-05 08:01:00,84.5,35.2,29.32,SE,139,5.4,6.2,17,-99.99,,,0.00,444.6,rob ver 1A,2013-06-05 15:01:00,
2013-06-05 08:07:00,84.8,34.8,29.32,SE,134,5.5,6.9,16,-99.99,,,0.00,463.4,rob ver 1A,2013-06-05 15:07:00,
2013-06-05 08:12:00,85.2,34.6,29.32,SE,142,5.7,6.9,16,-99.99,,,0.00,483.6,rob ver 1A,2013-06-05 15:12:00,
2013-06-05 08:18:00,85.4,34.5,29.32,SSE,148,5.5,6.8,16,-99.99,,,0.00,500.6,rob ver 1A,2013-06-05 15:18:00,
2013-06-05 08:23:00,86.1,34.6,29.32,SE,145,4.4,6.5,15,-99.99,,,0.00,520.9,rob ver 1A,2013-06-05 15:23:00,
2013-06-05 08:29:00,86.1,35.3,29.32,SSE,148,6.4,9.2,16,-99.99,,,0.00,540,rob ver 1A,2013-06-05 15:29:00,
2013-06-05 08:34:00,85.9,35.3,29.32,SSE,155,5.9,7.8,16,-99.99,,,0.00,556.2,rob ver 1A,2013-06-05 15:34:00,
2013-06-05 08:40:00,86.9,35.4,29.32,SSE,148,6.2,7.9,15,-99.99,,,0.00,572.5,rob ver 1A,2013-06-05 15:40:00,
2013-06-05 08:43:00,88.9,40.7,29.26,SSW,198,8.6,10.2,18,-99.99,,,0.00,575.1,rob ver 1B,2013-06-05 15:43:00,
2013-06-05 08:44:00,88.7,40.6,29.26,SSW,197,7.1,10.0,18,-99.99,,,0.00,578.2,rob ver 1B,2013-06-05 15:44:00,
2013-06-05 08:45:00,86.8,34.8,29.32,SE,133,6.6,7.8,15,-99.99,,,0.00,591.8,rob ver 1A,2013-06-05 15:45:00,
2013-06-05 08:46:00,88.5,40.6,29.26,South,172,5.8,8.2,18,-99.99,,,0.00,584.6,rob ver 1B,2013-06-05 15:46:00,
2013-06-05 08:47:00,88.6,40.9,29.26,SSW,194,6.4,9.1,18,-99.99,,,0.00,587.4,rob ver 1B,2013-06-05 15:47:00,
2013-06-05 08:48:00,88.8,40.7,29.26,SSW,194,6.5,8.3,18,-99.99,,,0.00,590.3,rob ver 1B,2013-06-05 15:48:00,
2013-06-05 08:49:00,88.8,40.7,29.26,SSW,209,5.6,7.4,18,-99.99,,,0.00,593.4,rob ver 1B,2013-06-05 15:49:00,
2013-06-05 08:50:00,87.2,34.0,29.32,SSE,163,7.2,8.5,15,-99.99,,,0.00,607.7,rob ver 1A,2013-06-05 15:50:00,
2013-06-05 08:51:00,88.6,40.6,29.26,South,175,4.8,7.2,18,-99.99,,,0.00,600.1,rob ver 1B,2013-06-05 15:51:00,
2013-06-05 08:52:00,88.6,40.8,29.26,South,175,5.7,7.7,18,-99.99,,,0.00,601.9,rob ver 1B,2013-06-05 15:52:00,
2013-06-05 08:53:00,88.8,40.9,29.26,SSE,159,4.8,8.6,18,-99.99,,,0.00,606.5,rob ver 1B,2013-06-05 15:53:00,
2013-06-05 08:54:00,89.1,40.9,29.26,SSW,209,6.2,9.6,18,-99.99,,,0.00,609,rob ver 1B,2013-06-05 15:54:00,
2013-06-05 08:55:00,87.4,34.9,29.32,SSE,161,7.0,9.2,15,-99.99,,,0.00,623.1,rob ver 1A,2013-06-05 15:55:00,
2013-06-05 08:56:00,89.4,40.5,29.26,South,183,3.6,5.0,18,-99.99,,,0.00,615,rob ver 1B,2013-06-05 15:56:00,
2013-06-05 08:57:00,89.6,40.6,29.26,South,189,5.6,8.0,17,-99.99,,,0.00,618.3,rob ver 1B,2013-06-05 15:57:00,
2013-06-05 08:58:00,89.6,40.4,29.26,SSW,203,6.9,8.7,17,-99.99,,,0.00,621.7,rob ver 1B,2013-06-05 15:58:00,
2013-06-05 08:59:00,89.5,40.5,29.26,SSW,204,7.0,8.6,17,-99.99,,,0.00,624,rob ver 1B,2013-06-05 15:59:00,
2013-06-05 09:00:00,87.8,34.7,29.32,SSE,166,5.8,7.0,15,-99.99,,,0.00,638,rob ver 1A,2013-06-05 16:00:00,
2013-06-05 09:01:00,89.6,40.2,29.26,SW,222,5.8,7.6,17,-99.99,,,0.00,629.9,rob ver 1B,2013-06-05 16:01:00,
2013-06-05 09:02:00,89.6,40.1,29.26,SSW,213,5.7,7.3,17,-99.99,,,0.00,632.6,rob ver 1B,2013-06-05 16:02:00,
2013-06-05 09:03:00,89.9,40.1,29.26,SW,216,6.2,7.9,17,-99.99,,,0.00,636.3,rob ver 1B,2013-06-05 16:03:00,
2013-06-05 09:04:00,90.1,40.0,29.26,SSW,199,6.0,9.6,16,-99.99,,,0.00,639.9,rob ver 1B,2013-06-05 16:04:00,
2013-06-05 09:05:00,90.2,39.6,29.26,South,182,7.1,8.5,16,-99.99,,,0.00,643.2,rob ver 1B,2013-06-05 16:05:00,
2013-06-05 09:06:00,88.2,33.0,29.32,SSE,157,8.5,10.1,13,-99.99,,,0.00,656.7,rob ver 1A,2013-06-05 16:06:00,
2013-06-05 09:07:00,90.0,39.2,29.26,South,182,8.2,11.0,16,-99.99,,,0.00,648.4,rob ver 1B,2013-06-05 16:07:00,
2013-06-05 09:08:00,89.8,38.9,29.26,South,177,7.7,9.6,17,-99.99,,,0.00,650.5,rob ver 1B,2013-06-05 16:08:00,
2013-06-05 09:09:00,89.8,39.3,29.26,South,189,6.7,8.5,16,-99.99,,,0.00,654.5,rob ver 1B,2013-06-05 16:09:00,
2013-06-05 09:10:00,90.1,39.3,29.26,South,183,7.0,9.0,16,-99.99,,,0.00,657.6,rob ver 1B,2013-06-05 16:10:00,
2013-06-05 09:11:00,88.2,32.8,29.32,SSE,149,7.2,8.7,13,-99.99,,,0.00,671.6,rob ver 1A,2013-06-05 16:11:00,
2013-06-05 09:12:00,90.0,39.2,29.26,SSW,195,7.1,9.2,16,-99.99,,,0.00,663.6,rob ver 1B,2013-06-05 16:12:00,
2013-06-05 09:13:00,90.3,39.5,29.26,South,186,5.1,6.6,16,-99.99,,,0.00,667.2,rob ver 1B,2013-06-05 16:13:00,
2013-06-05 09:14:00,90.6,39.4,29.26,South,189,6.5,8.3,16,-99.99,,,0.00,669.3,rob ver 1B,2013-06-05 16:14:00,
2013-06-05 09:15:00,90.6,39.3,29.26,South,185,5.7,8.2,16,-99.99,,,0.00,672.1,rob ver 1B,2013-06-05 16:15:00,
2013-06-05 09:16:00,90.8,39.3,29.26,SW,214,6.9,9.2,16,-99.99,,,0.00,675.2,rob ver 1B,2013-06-05 16:16:00,
2013-06-05 09:17:00,89.0,32.4,29.32,South,174,7.3,9.0,13,-99.99,,,0.00,686.5,rob ver 1A,2013-06-05 16:17:00,
2013-06-05 09:18:00,90.6,38.9,29.26,South,173,7.9,9.8,16,-99.99,,,0.00,680.6,rob ver 1B,2013-06-05 16:18:00,
2013-06-05 09:19:00,90.3,38.9,29.26,SSE,165,6.3,8.7,16,-99.99,,,0.00,682.4,rob ver 1B,2013-06-05 16:19:00,
2013-06-05 09:20:00,90.6,38.9,29.26,South,182,8.0,10.9,16,-99.99,,,0.00,685.8,rob ver 1B,2013-06-05 16:20:00,
2013-06-05 09:21:00,90.8,38.7,29.26,South,183,7.8,10.3,15,-99.99,,,0.00,689.9,rob ver 1B,2013-06-05 16:21:00,
2013-06-05 09:22:00,89.3,32.7,29.32,SSE,154,7.9,10.1,13,-99.99,,,0.00,701,rob ver 1A,2013-06-05 16:22:00,
2013-06-05 09:23:00,90.5,38.5,29.26,SSE,160,6.7,9.6,16,-99.99,,,0.00,696.1,rob ver 1B,2013-06-05 16:23:00,
2013-06-05 09:24:00,90.5,38.3,29.26,South,174,7.6,9.8,16,-99.99,,,0.00,698.3,rob ver 1B,2013-06-05 16:24:00,
2013-06-05 09:25:00,90.5,38.7,29.26,South,170,7.8,9.6,16,-99.99,,,0.00,701,rob ver 1B,2013-06-05 16:25:00,
2013-06-05 09:26:00,90.6,38.7,29.26,South,183,7.5,9.1,16,-99.99,,,0.00,704,rob ver 1B,2013-06-05 16:26:00,
2013-06-05 09:27:00,90.0,33.2,29.32,South,171,7.1,9.9,13,-99.99,,,0.00,717,rob ver 1A,2013-06-05 16:27:00,
2013-06-05 09:28:00,90.8,38.1,29.26,South,171,6.8,9.0,15,-99.99,,,0.00,710,rob ver 1B,2013-06-05 16:28:00,
2013-06-05 09:29:00,90.8,38.1,29.26,South,174,7.0,9.8,15,-99.99,,,0.00,711,rob ver 1B,2013-06-05 16:29:00,
2013-06-05 09:30:00,91.1,38.5,29.26,South,185,7.0,8.7,15,-99.99,,,0.00,715,rob ver 1B,2013-06-05 16:30:00,
2013-06-05 09:31:00,91.1,38.2,29.26,South,179,5.6,7.0,15,-99.99,,,0.00,718,rob ver 1B,2013-06-05 16:31:00,
2013-06-05 09:32:00,90.2,32.4,29.32,SSE,164,7.5,8.9,12,-99.99,,,0.00,731,rob ver 1A,2013-06-05 16:32:00,
2013-06-05 09:33:00,91.2,38.5,29.26,South,174,7.0,8.8,15,-99.99,,,0.00,723,rob ver 1B,2013-06-05 16:33:00,
2013-06-05 09:34:00,91.2,38.3,29.26,South,175,7.7,9.1,15,-99.99,,,0.00,726,rob ver 1B,2013-06-05 16:34:00,
2013-06-05 09:35:00,91.2,38.0,29.26,South,186,7.4,9.1,15,-99.99,,,0.00,728,rob ver 1B,2013-06-05 16:35:00,
2013-06-05 09:36:00,91.1,37.8,29.26,South,172,6.9,8.8,15,-99.99,,,0.00,730,rob ver 1B,2013-06-05 16:36:00,
2013-06-05 09:37:00,91.1,38.2,29.26,South,173,6.2,9.8,15,-99.99,,,0.00,734,rob ver 1B,2013-06-05 16:37:00,
2013-06-05 09:38:00,89.9,32.7,29.32,SSE,159,7.3,9.6,12,-99.99,,,0.00,746,rob ver 1A,2013-06-05 16:38:00,
2013-06-05 09:39:00,91.7,37.9,29.26,SSW,192,6.7,8.8,15,-99.99,,,0.00,739,rob ver 1B,2013-06-05 16:39:00,
2013-06-05 09:40:00,91.9,38.0,29.26,South,180,7.4,9.5,14,-99.99,,,0.00,742,rob ver 1B,2013-06-05 16:40:00,
2013-06-05 09:41:00,91.8,38.0,29.26,SSE,160,7.1,9.4,15,-99.99,,,0.00,745,rob ver 1B,2013-06-05 16:41:00,
2013-06-05 09:42:00,91.6,37.9,29.26,South,177,7.3,10.3,15,-99.99,,,0.00,747,rob ver 1B,2013-06-05 16:42:00,
2013-06-05 09:43:00,91.1,33.1,29.32,SSE,157,7.5,9.6,12,-99.99,,,0.00,761,rob ver 1A,2013-06-05 16:43:00,
2013-06-05 09:44:00,91.9,38.0,29.26,South,189,7.7,9.8,15,-99.99,,,0.00,752,rob ver 1B,2013-06-05 16:44:00,
2013-06-05 09:45:00,92.2,37.8,29.26,South,182,7.5,10.1,14,-99.99,,,0.00,755,rob ver 1B,2013-06-05 16:45:00,
2013-06-05 09:46:00,92.1,37.6,29.26,South,171,6.3,7.6,14,-99.99,,,0.00,757,rob ver 1B,2013-06-05 16:46:00,
2013-06-05 09:47:00,92.0,37.6,29.26,SSE,162,6.0,8.3,14,-99.99,,,0.00,759,rob ver 1B,2013-06-05 16:47:00,
2013-06-05 09:48:00,91.2,32.3,29.32,SSE,161,5.9,8.9,12,-99.99,,,0.00,774,rob ver 1A,2013-06-05 16:48:00,
2013-06-05 09:49:00,92.1,37.8,29.26,South,184,6.7,8.7,15,-99.99,,,0.00,766,rob ver 1B,2013-06-05 16:49:00,
2013-06-05 09:50:00,92.2,37.7,29.26,South,180,6.3,8.9,14,-99.99,,,0.00,767,rob ver 1B,2013-06-05 16:50:00,
2013-06-05 09:51:00,92.2,37.8,29.26,South,179,6.7,10.0,14,-99.99,,,0.00,769,rob ver 1B,2013-06-05 16:51:00,
2013-06-05 09:52:00,92.1,38.0,29.26,South,178,6.6,8.8,15,-99.99,,,0.00,772,rob ver 1B,2013-06-05 16:52:00,
2013-06-05 09:53:00,91.9,32.6,29.32,SE,146,5.9,8.7,11,-99.99,,,0.00,787,rob ver 1A,2013-06-05 16:53:00,
2013-06-05 09:54:00,92.0,38.3,29.26,SSE,161,5.7,9.4,15,-99.99,,,0.00,777,rob ver 1B,2013-06-05 16:54:00,
2013-06-05 09:55:00,91.9,38.5,29.26,South,185,5.8,7.4,15,-99.99,,,0.00,780,rob ver 1B,2013-06-05 16:55:00,
2013-06-05 09:56:00,92.3,38.4,29.26,SSW,192,8.1,9.6,15,-99.99,,,0.00,782,rob ver 1B,2013-06-05 16:56:00,
2013-06-05 09:57:00,92.7,38.1,29.26,SSW,213,6.1,8.8,14,-99.99,,,0.00,785,rob ver 1B,2013-06-05 16:57:00,
2013-06-05 09:58:00,92.8,38.1,29.26,SSW,196,4.6,6.5,15,-99.99,,,0.00,787,rob ver 1B,2013-06-05 16:58:00,
2013-06-05 09:59:00,92.1,31.1,29.32,SSE,165,5.9,9.0,11,-99.99,,,0.00,799,rob ver 1A,2013-06-05 16:59:00,
2013-06-05 10:00:00,92.9,38.8,29.26,SW,227,3.6,6.2,15,-99.99,,,0.00,792,rob ver 1B,2013-06-05 17:00:00,
2013-06-05 10:01:00,93.2,39.0,29.26,South,189,6.5,8.7,15,-99.99,,,0.00,793,rob ver 1B,2013-06-05 17:01:00,
2013-06-05 10:02:00,93.4,38.6,29.26,SW,219,6.6,8.7,14,-99.99,,,0.00,796,rob ver 1B,2013-06-05 17:02:00,
2013-06-05 10:03:00,93.2,38.7,29.26,WSW,246,2.7,4.0,15,-99.99,,,0.00,798,rob ver 1B,2013-06-05 17:03:00,
2013-06-05 10:04:00,92.6,32.1,29.32,SSE,150,7.5,9.6,11,-99.99,,,0.00,812,rob ver 1A,2013-06-05 17:04:00,
2013-06-05 10:05:00,92.9,39.1,29.26,SSE,162,3.0,4.0,15,-99.99,,,0.00,803,rob ver 1B,2013-06-05 17:05:00,
2013-06-05 10:06:00,93.0,39.1,29.26,South,172,2.7,4.4,15,-99.99,,,0.00,806,rob ver 1B,2013-06-05 17:06:00,
2013-06-05 10:07:00,93.2,39.5,29.26,SSE,168,3.5,4.9,15,-99.99,,,0.00,809,rob ver 1B,2013-06-05 17:07:00,
2013-06-05 10:08:00,93.5,39.9,29.26,SSW,208,5.2,11.4,15,-99.99,,,0.00,811,rob ver 1B,2013-06-05 17:08:00,
2013-06-05 10:09:00,93.7,39.9,29.26,SSW,207,7.5,10.8,15,-99.99,,,0.00,811,rob ver 1B,2013-06-05 17:09:00,
2013-06-05 10:10:00,92.2,31.2,29.32,SSW,201,5.8,8.5,11,-99.99,,,0.00,826,rob ver 1A,2013-06-05 17:10:00,
2013-06-05 10:11:00,93.4,40.0,29.26,SW,231,5.6,8.7,15,-99.99,,,0.00,818,rob ver 1B,2013-06-05 17:11:00,
2013-06-05 10:12:00,93.2,40.2,29.26,SSW,213,4.6,7.3,16,-99.99,,,0.00,820,rob ver 1B,2013-06-05 17:12:00,
2013-06-05 10:13:00,93.5,40.4,29.26,West,264,1.3,2.6,15,-99.99,,,0.00,821,rob ver 1B,2013-06-05 17:13:00,
2013-06-05 10:14:00,94.0,40.9,29.26,SSW,212,4.9,7.2,15,-99.99,,,0.00,824,rob ver 1B,2013-06-05 17:14:00,
2013-06-05 10:15:00,92.9,31.8,29.32,South,186,4.3,8.2,11,-99.99,,,0.00,833,rob ver 1A,2013-06-05 17:15:00,
2013-06-05 10:16:00,93.5,40.6,29.26,South,174,4.9,6.4,15,-99.99,,,0.00,830,rob ver 1B,2013-06-05 17:16:00,
2013-06-05 10:17:00,93.9,40.7,29.26,South,185,2.6,5.3,15,-99.99,,,0.00,831,rob ver 1B,2013-06-05 17:17:00,
2013-06-05 10:18:00,94.3,40.8,29.26,South,181,6.9,9.3,15,-99.99,,,0.00,833,rob ver 1B,2013-06-05 17:18:00,
2013-06-05 10:19:00,94.0,40.4,29.26,SSE,161,6.5,7.6,15,-99.99,,,0.00,836,rob ver 1B,2013-06-05 17:19:00,
2013-06-05 10:20:00,93.1,30.8,29.32,SSE,160,5.4,9.0,10,-99.99,,,0.00,848,rob ver 1A,2013-06-05 17:20:00,
2013-06-05 10:21:00,93.9,40.7,29.26,SSW,195,5.1,8.3,15,-99.99,,,0.00,839,rob ver 1B,2013-06-05 17:21:00,
2013-06-05 10:22:00,94.0,40.5,29.26,South,182,5.5,7.4,15,-99.99,,,0.00,841,rob ver 1B,2013-06-05 17:22:00,
2013-06-05 10:23:00,94.2,40.9,29.26,South,191,5.0,9.0,15,-99.99,,,0.00,843,rob ver 1B,2013-06-05 17:23:00,
2013-06-05 10:24:00,94.3,41.0,29.26,SSW,195,7.3,9.3,15,-99.99,,,0.00,845,rob ver 1B,2013-06-05 17:24:00,
2013-06-05 10:25:00,94.1,41.3,29.26,South,188,5.3,9.5,16,-99.99,,,0.00,847,rob ver 1B,2013-06-05 17:25:00,
2013-06-05 10:26:00,93.3,30.0,29.32,South,175,7.9,9.8,10,-99.99,,,0.00,862,rob ver 1A,2013-06-05 17:26:00,
2013-06-05 10:27:00,94.3,40.7,29.26,SSW,195,6.7,10.0,15,-99.99,,,0.00,852,rob ver 1B,2013-06-05 17:27:00,
2013-06-05 10:28:00,94.5,41.1,29.26,SSW,210,4.4,7.0,15,-99.99,,,0.00,854,rob ver 1B,2013-06-05 17:28:00,
2013-06-05 10:29:00,94.7,41.4,29.26,SW,223,5.9,9.6,16,-99.99,,,0.00,855,rob ver 1B,2013-06-05 17:29:00,
2013-06-05 10:30:00,94.7,41.4,29.26,SSW,208,7.6,9.7,15,-99.99,,,0.00,857,rob ver 1B,2013-06-05 17:30:00,
2013-06-05 10:31:00,93.5,30.8,29.32,SSE,160,4.5,7.4,10,-99.99,,,0.00,875,rob ver 1A,2013-06-05 17:31:00,
2013-06-05 10:32:00,94.7,41.4,29.26,SSW,192,3.3,5.5,16,-99.99,,,0.00,862,rob ver 1B,2013-06-05 17:32:00,
2013-06-05 10:33:00,94.7,41.5,29.26,South,178,2.6,5.8,15,-99.99,,,0.00,862,rob ver 1B,2013-06-05 17:33:00,
2013-06-05 10:34:00,94.9,41.5,29.26,South,186,5.1,7.3,15,-99.99,,,0.00,865,rob ver 1B,2013-06-05 17:34:00,
2013-06-05 10:35:00,95.1,41.5,29.26,South,171,2.5,4.3,15,-99.99,,,0.00,866,rob ver 1B,2013-06-05 17:35:00,
2013-06-05 10:36:00,94.0,30.0,29.32,SSE,163,6.6,8.7,10,-99.99,,,0.00,881,rob ver 1A,2013-06-05 17:36:00,
2013-06-05 10:37:00,95.2,41.1,29.26,South,187,7.5,10.6,15,-99.99,,,0.00,870,rob ver 1B,2013-06-05 17:37:00,
2013-06-05 10:38:00,95.4,40.9,29.26,SSW,192,7.2,10.4,15,-99.99,,,0.00,872,rob ver 1B,2013-06-05 17:38:00,
2013-06-05 10:39:00,95.6,41.1,29.26,SW,217,7.1,10.3,15,-99.99,,,0.00,875,rob ver 1B,2013-06-05 17:39:00,
2013-06-05 10:40:00,95.3,40.9,29.26,SW,220,7.0,10.5,15,-99.99,,,0.00,878,rob ver 1B,2013-06-05 17:40:00,
2013-06-05 10:41:00,94.5,29.8,29.32,SE,137,7.5,10.8,9,-99.99,,,0.00,892,rob ver 1A,2013-06-05 17:41:00,
2013-06-05 10:42:00,95.3,40.7,29.26,SW,218,5.5,7.3,15,-99.99,,,0.00,880,rob ver 1B,2013-06-05 17:42:00,
2013-06-05 10:43:00,95.7,39.3,29.26,SW,220,3.4,6.0,14,-99.99,,,0.00,884,rob ver 1B,2013-06-05 17:43:00,
2013-06-05 10:44:00,95.9,39.5,29.26,South,177,3.5,6.4,14,-99.99,,,0.00,885,rob ver 1B,2013-06-05 17:44:00,
2013-06-05 10:45:00,95.9,40.7,29.26,South,181,6.6,9.4,15,-99.99,,,0.00,887,rob ver 1B,2013-06-05 17:45:00,
2013-06-05 10:46:00,95.4,41.2,29.26,South,169,6.3,9.3,15,-99.99,,,0.00,888,rob ver 1B,2013-06-05 17:46:00,
2013-06-05 10:47:00,94.4,31.2,29.32,SSE,154,4.9,7.7,10,-99.99,,,0.00,903,rob ver 1A,2013-06-05 17:47:00,
2013-06-05 10:48:00,95.4,40.0,29.26,South,183,6.5,9.2,14,-99.99,,,0.00,891,rob ver 1B,2013-06-05 17:48:00,
2013-06-05 10:49:00,95.6,39.6,29.26,SSW,193,6.7,9.2,14,-99.99,,,0.00,894,rob ver 1B,2013-06-05 17:49:00,
2013-06-05 10:50:00,95.9,39.1,29.26,South,187,4.8,8.3,14,-99.99,,,0.00,896,rob ver 1B,2013-06-05 17:50:00,
2013-06-05 10:51:00,96.0,39.3,29.26,South,189,1.8,2.9,14,-99.99,,,0.00,897,rob ver 1B,2013-06-05 17:51:00,
2013-06-05 10:52:00,96.4,40.7,29.26,South,187,6.1,11.5,15,-99.99,,,0.00,898,rob ver 1B,2013-06-05 17:52:00,
2013-06-05 10:53:00,95.4,31.9,29.32,SE,140,7.6,13.1,10,-99.99,,,0.00,909,rob ver 1A,2013-06-05 17:53:00,
2013-06-05 10:54:00,96.2,41.6,29.26,South,177,6.2,9.6,15,-99.99,,,0.00,901,rob ver 1B,2013-06-05 17:54:00,
2013-06-05 10:55:00,96.0,41.5,29.26,South,175,7.3,9.0,15,-99.99,,,0.00,902,rob ver 1B,2013-06-05 17:55:00,
2013-06-05 10:56:00,95.7,41.6,29.26,SE,142,4.6,6.6,15,-99.99,,,0.00,905,rob ver 1B,2013-06-05 17:56:00,
2013-06-05 10:57:00,95.6,41.5,29.26,ESE,110,3.4,4.8,15,-99.99,,,0.00,907,rob ver 1B,2013-06-05 17:57:00,
2013-06-05 10:58:00,95.8,41.3,29.26,SSE,165,3.0,5.7,15,-99.99,,,0.00,909,rob ver 1B,2013-06-05 17:58:00,
2013-06-05 10:59:00,95.2,31.9,29.32,SE,141,7.4,10.4,11,-99.99,,,0.00,920,rob ver 1A,2013-06-05 17:59:00,
2013-06-05 11:00:00,97.2,40.7,29.26,SSW,198,5.6,9.8,14,-99.99,,,0.00,911,rob ver 1B,2013-06-05 18:00:00,
2013-06-05 11:01:00,97.3,40.3,29.26,South,172,5.4,8.3,13,-99.99,,,0.00,912,rob ver 1B,2013-06-05 18:01:00,
2013-06-05 11:02:00,97.3,39.2,29.26,SSW,193,8.4,12.1,13,-99.99,,,0.00,912,rob ver 1B,2013-06-05 18:02:00,
2013-06-05 11:03:00,97.2,38.7,29.26,SSW,194,9.1,11.6,13,-99.99,,,0.00,916,rob ver 1B,2013-06-05 18:03:00,
2013-06-05 11:04:00,94.9,32.3,29.32,SE,145,5.8,8.5,11,-99.99,,,0.00,928,rob ver 1A,2013-06-05 18:04:00,
2013-06-05 11:05:00,96.8,39.0,29.26,SW,214,5.5,7.4,13,-99.99,,,0.00,922,rob ver 1B,2013-06-05 18:05:00,
2013-06-05 11:06:00,96.7,39.7,29.26,SW,214,4.9,6.4,14,-99.99,,,0.00,921,rob ver 1B,2013-06-05 18:06:00,
2013-06-05 11:07:00,97.1,40.0,29.26,SSW,196,7.2,9.6,13,-99.99,,,0.00,925,rob ver 1B,2013-06-05 18:07:00,
2013-06-05 11:08:00,97.5,40.2,29.26,SSW,196,7.0,9.6,13,-99.99,,,0.00,925,rob ver 1B,2013-06-05 18:08:00,
2013-06-05 11:09:00,95.6,32.6,29.32,SSE,166,9.0,12.0,10,-99.99,,,0.00,935,rob ver 1A,2013-06-05 18:09:00,
2013-06-05 11:10:00,97.6,40.0,29.26,SW,214,5.9,8.1,13,-99.99,,,0.00,926,rob ver 1B,2013-06-05 18:10:00,
2013-06-05 11:11:00,97.5,39.6,29.26,WSW,246,4.8,7.4,13,-99.99,,,0.00,929,rob ver 1B,2013-06-05 18:11:00,
2013-06-05 11:12:00,97.4,39.8,29.26,SW,229,3.1,5.5,13,-99.99,,,0.00,930,rob ver 1B,2013-06-05 18:12:00,
2013-06-05 11:13:00,97.7,40.0,29.26,South,189,2.7,5.1,13,-99.99,,,0.00,932,rob ver 1B,2013-06-05 18:13:00,
2013-06-05 11:14:00,98.1,40.3,29.26,SSW,199,9.0,13.4,13,-99.99,,,0.00,931,rob ver 1B,2013-06-05 18:14:00,
2013-06-05 11:15:00,96.6,33.6,29.32,SSE,156,10.9,13.4,11,-99.99,,,0.00,938,rob ver 1A,2013-06-05 18:15:00,
2013-06-05 11:16:00,97.7,40.4,29.26,SW,229,4.9,8.6,14,-99.99,,,0.00,937,rob ver 1B,2013-06-05 18:16:00,
2013-06-05 11:17:00,97.8,40.3,29.26,South,187,1.8,4.1,13,-99.99,,,0.00,937,rob ver 1B,2013-06-05 18:17:00,
2013-06-05 11:18:00,98.2,39.8,29.26,SSE,162,3.4,6.5,13,-99.99,,,0.00,933,rob ver 1B,2013-06-05 18:18:00,
2013-06-05 11:19:00,98.5,40.0,29.26,SSW,213,7.3,10.2,13,-99.99,,,0.00,938,rob ver 1B,2013-06-05 18:19:00,
2013-06-05 11:20:00,96.0,32.8,29.32,South,188,10.0,11.7,10,-99.99,,,0.00,949,rob ver 1A,2013-06-05 18:20:00,
2013-06-05 11:21:00,98.9,39.8,29.26,SW,216,7.7,9.6,13,-99.99,,,0.00,944,rob ver 1B,2013-06-05 18:21:00,
2013-06-05 11:22:00,98.4,40.0,29.26,SSW,197,4.6,7.0,13,-99.99,,,0.00,943,rob ver 1B,2013-06-05 18:22:00,
2013-06-05 11:23:00,98.1,40.1,29.26,South,184,4.1,6.2,13,-99.99,,,0.00,944,rob ver 1B,2013-06-05 18:23:00,
2013-06-05 11:24:00,98.2,40.1,29.26,SSW,201,8.5,12.1,13,-99.99,,,0.00,943,rob ver 1B,2013-06-05 18:24:00,
2013-06-05 11:25:00,96.4,32.8,29.32,South,179,8.4,11.7,10,-99.99,,,0.00,954,rob ver 1A,2013-06-05 18:25:00,
2013-06-05 11:26:00,98.7,40.2,29.26,SSW,199,8.7,11.0,13,-99.99,,,0.00,947,rob ver 1B,2013-06-05 18:26:00,
2013-06-05 11:27:00,98.9,40.2,29.26,SSW,204,10.6,14.3,13,-99.99,,,0.00,950,rob ver 1B,2013-06-05 18:27:00,
2013-06-05 11:28:00,98.8,40.0,29.26,SW,220,9.7,11.3,13,-99.99,,,0.00,950,rob ver 1B,2013-06-05 18:28:00,
2013-06-05 11:29:00,98.6,39.8,29.26,SW,214,6.6,11.3,13,-99.99,,,0.00,952,rob ver 1B,2013-06-05 18:29:00,
2013-06-05 11:30:00,97.0,33.0,29.32,South,181,9.5,12.1,10,-99.99,,,0.00,961,rob ver 1A,2013-06-05 18:30:00,
2013-06-05 11:31:00,99.1,39.8,29.23,South,170,9.8,13.9,12,-99.99,,,0.00,952,rob ver 1B,2013-06-05 18:31:00,
2013-06-05 11:32:00,98.9,39.7,29.23,South,188,8.1,12.3,13,-99.99,,,0.00,954,rob ver 1B,2013-06-05 18:32:00,
2013-06-05 11:33:00,99.1,39.5,29.23,SSW,198,6.7,8.9,12,-99.99,,,0.00,953,rob ver 1B,2013-06-05 18:33:00,
2013-06-05 11:34:00,99.4,39.3,29.26,South,177,7.2,9.6,12,-99.99,,,0.00,957,rob ver 1B,2013-06-05 18:34:00,
2013-06-05 11:35:00,100.1,39.7,29.26,South,176,6.3,8.4,12,-99.99,,,0.00,958,rob ver 1B,2013-06-05 18:35:00,
2013-06-05 11:36:00,96.2,32.2,29.32,SSE,158,8.3,13.1,10,-99.99,,,0.00,966,rob ver 1A,2013-06-05 18:36:00,
2013-06-05 11:37:00,100.4,39.1,29.26,SSW,195,8.5,12.8,12,-99.99,,,0.00,960,rob ver 1B,2013-06-05 18:37:00,
2013-06-05 11:38:00,100.6,39.2,29.23,South,180,12.2,15.7,12,-99.99,,,0.00,962,rob ver 1B,2013-06-05 18:38:00,
2013-06-05 11:39:00,100.2,39.4,29.26,South,170,8.4,11.1,12,-99.99,,,0.00,962,rob ver 1B,2013-06-05 18:39:00,
2013-06-05 11:40:00,100.2,39.7,29.23,South,188,8.0,13.4,12,-99.99,,,0.00,964,rob ver 1B,2013-06-05 18:40:00,
2013-06-05 11:41:00,100.3,39.5,29.23,SSW,202,11.3,14.6,12,-99.99,,,0.00,964,rob ver 1B,2013-06-05 18:41:00,
2013-06-05 11:42:00,97.1,32.9,29.32,SSW,204,10.4,15.8,10,-99.99,,,0.00,971,rob ver 1A,2013-06-05 18:42:00,
2013-06-05 11:43:00,99.7,38.7,29.23,SW,216,8.6,11.0,12,-99.99,,,0.00,968,rob ver 1B,2013-06-05 18:43:00,
2013-06-05 11:44:00,99.4,39.7,29.23,SSW,213,7.5,12.0,13,-99.99,,,0.00,971,rob ver 1B,2013-06-05 18:44:00,
2013-06-05 11:45:00,99.5,40.1,29.23,South,191,8.9,11.9,13,-99.99,,,0.00,971,rob ver 1B,2013-06-05 18:45:00,
2013-06-05 11:46:00,99.6,40.2,29.23,SSW,204,4.5,7.1,13,-99.99,,,0.00,971,rob ver 1B,2013-06-05 18:46:00,
2013-06-05 11:47:00,96.5,32.4,29.32,SSE,167,6.6,10.6,10,-99.99,,,0.00,978,rob ver 1A,2013-06-05 18:47:00,
2013-06-05 11:48:00,100.0,39.7,29.23,South,189,7.8,10.0,13,-99.99,,,0.00,970,rob ver 1B,2013-06-05 18:48:00,
2013-06-05 11:49:00,99.9,40.4,29.23,SSW,208,8.4,14.0,13,-99.99,,,0.00,973,rob ver 1B,2013-06-05 18:49:00,
2013-06-05 11:50:00,99.5,40.1,29.23,South,191,9.2,12.7,13,-99.99,,,0.00,974,rob ver 1B,2013-06-05 18:50:00,
2013-06-05 11:51:00,99.4,40.1,29.23,South,175,5.4,9.5,12,-99.99,,,0.00,972,rob ver 1B,2013-06-05 18:51:00,
2013-06-05 11:52:00,97.1,32.8,29.32,SW,219,5.8,7.9,10,-99.99,,,0.00,981,rob ver 1A,2013-06-05 18:52:00,
2013-06-05 11:53:00,99.8,39.8,29.23,South,173,9.1,13.3,12,-99.99,,,0.00,976,rob ver 1B,2013-06-05 18:53:00,
2013-06-05 11:54:00,100.3,39.5,29.23,SSW,207,11.1,13.8,12,-99.99,,,0.00,976,rob ver 1B,2013-06-05 18:54:00,
2013-06-05 11:55:00,100.0,39.3,29.23,SSW,210,7.2,11.4,12,-99.99,,,0.00,977,rob ver 1B,2013-06-05 18:55:00,
2013-06-05 11:56:00,99.8,39.7,29.23,SW,225,3.3,4.6,12,-99.99,,,0.00,974,rob ver 1B,2013-06-05 18:56:00,
2013-06-05 11:57:00,100.1,40.0,29.23,SSW,199,6.9,12.6,12,-99.99,,,0.00,977,rob ver 1B,2013-06-05 18:57:00,
2013-06-05 11:58:00,97.3,33.3,29.32,South,181,9.6,15.1,10,-99.99,,,0.00,988,rob ver 1A,2013-06-05 18:58:00,
2013-06-05 11:59:00,100.0,40.1,29.23,SSW,196,7.9,11.6,12,-99.99,,,0.00,979,rob ver 1B,2013-06-05 18:59:00,
2013-06-05 12:00:00,100.6,40.2,29.23,South,181,10.9,13.7,12,-99.99,,,0.00,983,rob ver 1B,2013-06-05 19:00:00,
2013-06-05 12:01:00,100.9,40.2,29.23,South,170,11.4,15.2,12,-99.99,,,0.00,980,rob ver 1B,2013-06-05 19:01:00,
2013-06-05 12:02:00,100.5,39.9,29.23,SSE,152,7.9,11.7,12,-99.99,,,0.00,982,rob ver 1B,2013-06-05 19:02:00,
2013-06-05 12:03:00,100.1,39.6,29.23,SE,137,6.7,9.7,12,-99.99,,,0.00,983,rob ver 1B,2013-06-05 19:03:00,
2013-06-05 12:04:00,97.4,32.8,29.32,South,181,9.6,12.5,10,-99.99,,,0.00,992,rob ver 1A,2013-06-05 19:04:00,
2013-06-05 12:05:00,100.2,39.3,29.23,SSW,193,6.9,9.3,12,-99.99,,,0.00,985,rob ver 1B,2013-06-05 19:05:00,
2013-06-05 12:06:00,100.6,38.9,29.23,South,177,7.7,10.6,11,-99.99,,,0.00,983,rob ver 1B,2013-06-05 19:06:00,
2013-06-05 12:07:00,100.8,38.6,29.23,SSE,156,8.3,11.2,11,-99.99,,,0.00,984,rob ver 1B,2013-06-05 19:07:00,
2013-06-05 12:08:00,101.4,38.6,29.23,South,177,9.5,12.5,11,-99.99,,,0.00,984,rob ver 1B,2013-06-05 19:08:00,
2013-06-05 12:09:00,102.0,38.7,29.23,South,185,9.2,11.0,11,-99.99,,,0.00,987,rob ver 1B,2013-06-05 19:09:00,
2013-06-05 12:10:00,97.4,33.3,29.32,South,172,10.4,13.5,10,-99.99,,,0.00,997,rob ver 1A,2013-06-05 19:10:00,
2013-06-05 12:11:00,101.0,38.6,29.23,SSE,147,5.7,10.1,11,-99.99,,,0.00,986,rob ver 1B,2013-06-05 19:11:00,
2013-06-05 12:12:00,100.9,38.7,29.23,SSE,150,6.0,9.8,11,-99.99,,,0.00,985,rob ver 1B,2013-06-05 19:12:00,
2013-06-05 12:13:00,101.3,38.5,29.23,South,172,11.8,16.6,11,-99.99,,,0.00,989,rob ver 1B,2013-06-05 19:13:00,
2013-06-05 12:14:00,101.1,38.1,29.23,South,177,10.3,15.0,11,-99.99,,,0.00,991,rob ver 1B,2013-06-05 19:14:00,
2013-06-05 12:15:00,97.6,33.6,29.32,South,184,6.1,9.6,10,-99.99,,,0.00,998,rob ver 1A,2013-06-05 19:15:00,
2013-06-05 12:16:00,100.6,38.3,29.23,South,180,7.7,10.4,11,-99.99,,,0.00,989,rob ver 1B,2013-06-05 19:16:00,
2013-06-05 12:17:00,100.8,38.3,29.23,SSW,197,7.0,10.3,11,-99.99,,,0.00,992,rob ver 1B,2013-06-05 19:17:00,
2013-06-05 12:18:00,101.0,37.3,29.23,SSW,208,8.9,12.4,11,-99.99,,,0.00,992,rob ver 1B,2013-06-05 19:18:00,
2013-06-05 12:19:00,101.0,36.4,29.23,SSW,195,7.6,10.5,10,-99.99,,,0.00,990,rob ver 1B,2013-06-05 19:19:00,
2013-06-05 12:20:00,98.1,33.5,29.32,SSW,193,11.4,13.5,10,-99.99,,,0.00,1002,rob ver 1A,2013-06-05 19:20:00,
2013-06-05 12:21:00,101.6,36.7,29.23,SSW,195,8.1,14.5,10,-99.99,,,0.00,993,rob ver 1B,2013-06-05 19:21:00,
2013-06-05 12:22:00,101.5,37.2,29.23,SSW,201,8.8,14.1,11,-99.99,,,0.00,993,rob ver 1B,2013-06-05 19:22:00,
2013-06-05 12:23:00,101.5,37.7,29.23,SSW,199,11.4,14.8,11,-99.99,,,0.00,993,rob ver 1B,2013-06-05 19:23:00,
2013-06-05 12:24:00,101.4,37.8,29.23,SSW,192,9.6,12.9,11,-99.99,,,0.00,992,rob ver 1B,2013-06-05 19:24:00,
2013-06-05 12:25:00,101.1,38.3,29.23,SSW,202,8.1,11.2,11,-99.99,,,0.00,993,rob ver 1B,2013-06-05 19:25:00,
2013-06-05 12:26:00,97.8,33.6,29.32,South,185,7.6,10.1,10,-99.99,,,0.00,1002,rob ver 1A,2013-06-05 19:26:00,
2013-06-05 12:27:00,101.0,37.9,29.23,South,178,5.1,10.0,11,-99.99,,,0.00,992,rob ver 1B,2013-06-05 19:27:00,
2013-06-05 12:28:00,101.0,38.2,29.23,South,177,8.9,14.1,11,-99.99,,,0.00,994,rob ver 1B,2013-06-05 19:28:00,
2013-06-05 12:29:00,101.2,38.4,29.23,South,184,9.3,11.7,11,-99.99,,,0.00,995,rob ver 1B,2013-06-05 19:29:00,
2013-06-05 12:30:00,101.8,38.1,29.23,SSW,193,9.2,13.2,11,-99.99,,,0.00,992,rob ver 1B,2013-06-05 19:30:00,
2013-06-05 12:31:00,101.6,37.7,29.23,SSE,164,6.6,10.8,11,-99.99,,,0.00,993,rob ver 1B,2013-06-05 19:31:00,
2013-06-05 12:32:00,98.7,34.0,29.29,SW,217,10.3,13.0,10,-99.99,,,0.00,1002,rob ver 1A,2013-06-05 19:32:00,
2013-06-05 12:33:00,102.1,37.9,29.23,WSW,237,9.9,13.3,11,-99.99,,,0.00,995,rob ver 1B,2013-06-05 19:33:00,
2013-06-05 12:34:00,101.8,38.0,29.23,South,181,7.7,10.6,11,-99.99,,,0.00,996,rob ver 1B,2013-06-05 19:34:00,
2013-06-05 12:35:00,101.8,37.9,29.23,South,191,7.9,10.7,11,-99.99,,,0.00,995,rob ver 1B,2013-06-05 19:35:00,
2013-06-05 12:36:00,101.8,37.8,29.23,South,183,5.8,10.7,11,-99.99,,,0.00,994,rob ver 1B,2013-06-05 19:36:00,
2013-06-05 12:37:00,98.1,34.7,29.29,South,179,10.6,14.4,11,-99.99,,,0.00,1004,rob ver 1A,2013-06-05 19:37:00,
2013-06-05 12:38:00,102.0,37.8,29.23,South,175,8.6,13.3,10,-99.99,,,0.00,994,rob ver 1B,2013-06-05 19:38:00,
2013-06-05 12:39:00,102.8,37.2,29.23,SSW,197,10.5,13.7,10,-99.99,,,0.00,996,rob ver 1B,2013-06-05 19:39:00,
2013-06-05 12:40:00,102.8,36.8,29.23,South,176,10.9,13.5,10,-99.99,,,0.00,996,rob ver 1B,2013-06-05 19:40:00,
2013-06-05 12:41:00,102.7,37.2,29.23,SSW,203,11.2,14.0,10,-99.99,,,0.00,993,rob ver 1B,2013-06-05 19:41:00,
2013-06-05 12:42:00,102.6,37.1,29.23,SSW,212,10.8,13.1,10,-99.99,,,0.00,995,rob ver 1B,2013-06-05 19:42:00,
2013-06-05 12:43:00,98.7,34.3,29.29,SSW,202,10.5,15.0,10,-99.99,,,0.00,1005,rob ver 1A,2013-06-05 19:43:00,
2013-06-05 12:44:00,101.7,36.9,29.23,SW,217,8.3,13.4,10,-99.99,,,0.00,997,rob ver 1B,2013-06-05 19:44:00,
2013-06-05 12:45:00,101.9,36.9,29.23,SSW,199,8.4,12.2,10,-99.99,,,0.00,996,rob ver 1B,2013-06-05 19:45:00,
2013-06-05 12:46:00,101.9,36.5,29.23,SSW,202,7.7,11.3,10,-99.99,,,0.00,995,rob ver 1B,2013-06-05 19:46:00,
2013-06-05 12:47:00,101.8,36.6,29.23,SSW,194,5.5,7.7,10,-99.99,,,0.00,997,rob ver 1B,2013-06-05 19:47:00,
2013-06-05 12:48:00,102.1,36.4,29.23,South,186,7.9,10.6,10,-99.99,,,0.00,998,rob ver 1B,2013-06-05 19:48:00,
2013-06-05 12:49:00,99.0,34.6,29.29,SW,219,9.0,14.8,10,-99.99,,,0.00,1004,rob ver 1A,2013-06-05 19:49:00,
2013-06-05 12:50:00,102.6,36.1,29.23,SSW,199,11.2,14.1,10,-99.99,,,0.00,997,rob ver 1B,2013-06-05 19:50:00,
2013-06-05 12:51:00,102.7,35.7,29.23,SSW,192,9.7,12.7,10,-99.99,,,0.00,995,rob ver 1B,2013-06-05 19:51:00,
2013-06-05 12:52:00,102.2,35.5,29.23,South,186,6.8,8.9,10,-99.99,,,0.00,993,rob ver 1B,2013-06-05 19:52:00,
2013-06-05 12:53:00,102.1,35.5,29.23,SSE,167,6.6,10.0,10,-99.99,,,0.00,994,rob ver 1B,2013-06-05 19:53:00,
2013-06-05 12:54:00,99.6,35.0,29.29,SSW,202,9.5,13.7,10,-99.99,,,0.00,1000,rob ver 1A,2013-06-05 19:54:00,
2013-06-05 12:55:00,102.8,34.3,29.23,South,188,11.7,15.3,9,-99.99,,,0.00,996,rob ver 1B,2013-06-05 19:55:00,
2013-06-05 12:56:00,103.2,34.2,29.23,South,191,10.3,13.7,9,-99.99,,,0.00,997,rob ver 1B,2013-06-05 19:56:00,
2013-06-05 12:57:00,103.5,34.2,29.23,SSW,198,11.6,17.7,9,-99.99,,,0.00,997,rob ver 1B,2013-06-05 19:57:00,
2013-06-05 12:58:00,102.9,34.1,29.23,SSW,203,8.6,10.5,9,-99.99,,,0.00,996,rob ver 1B,2013-06-05 19:58:00,
2013-06-05 12:59:00,100.3,35.1,29.29,SSW,205,11.5,14.7,10,-99.99,,,0.00,1004,rob ver 1A,2013-06-05 19:59:00,
2013-06-05 13:00:00,102.5,34.4,29.23,SW,216,12.0,14.6,9,-99.99,,,0.00,995,rob ver 1B,2013-06-05 20:00:00,
2013-06-05 13:01:00,102.3,34.2,29.23,SSW,205,7.3,11.1,9,-99.99,,,0.00,990,rob ver 1B,2013-06-05 20:01:00,
2013-06-05 13:02:00,102.3,33.9,29.23,SW,217,6.6,10.7,9,-99.99,,,0.00,993,rob ver 1B,2013-06-05 20:02:00,
2013-06-05 13:03:00,102.4,33.9,29.23,South,187,4.8,6.2,9,-99.99,,,0.00,997,rob ver 1B,2013-06-05 20:03:00,
2013-06-05 13:04:00,99.3,35.1,29.29,SSW,213,9.2,14.7,10,-99.99,,,0.00,999,rob ver 1A,2013-06-05 20:04:00,
2013-06-05 13:05:00,103.6,33.8,29.23,South,181,12.1,15.2,9,-99.99,,,0.00,993,rob ver 1B,2013-06-05 20:05:00,
2013-06-05 13:06:00,103.2,33.7,29.23,South,179,10.7,12.9,8,-99.99,,,0.00,992,rob ver 1B,2013-06-05 20:06:00,
2013-06-05 13:07:00,102.9,33.5,29.23,South,178,9.1,13.6,9,-99.99,,,0.00,993,rob ver 1B,2013-06-05 20:07:00,
2013-06-05 13:08:00,102.8,33.6,29.23,South,191,10.0,12.8,9,-99.99,,,0.00,993,rob ver 1B,2013-06-05 20:08:00,
2013-06-05 13:09:00,103.6,33.6,29.23,South,181,8.7,13.4,8,-99.99,,,0.00,992,rob ver 1B,2013-06-05 20:09:00,
2013-06-05 13:10:00,99.7,35.5,29.29,SSW,193,11.2,21.3,10,-99.99,,,0.00,999,rob ver 1A,2013-06-05 20:10:00,
2013-06-05 13:11:00,104.2,34.0,29.21,SSW,210,12.0,17.0,8,-99.99,,,0.00,988,rob ver 1B,2013-06-05 20:11:00,
2013-06-05 13:12:00,104.3,33.7,29.23,SSW,210,8.9,14.0,8,-99.99,,,0.00,985,rob ver 1B,2013-06-05 20:12:00,
2013-06-05 13:13:00,104.3,33.8,29.21,SSW,202,13.4,16.7,8,-99.99,,,0.00,985,rob ver 1B,2013-06-05 20:13:00,
2013-06-05 13:14:00,104.1,33.8,29.23,SSW,212,13.0,15.7,8,-99.99,,,0.00,988,rob ver 1B,2013-06-05 20:14:00,
2013-06-05 13:15:00,100.0,35.3,29.29,SSE,155,10.3,13.3,10,-99.99,,,0.00,995,rob ver 1A,2013-06-05 20:15:00,
2013-06-05 13:16:00,103.9,33.9,29.23,SW,229,10.5,13.7,9,-99.99,,,0.00,985,rob ver 1B,2013-06-05 20:16:00,
2013-06-05 13:17:00,103.6,33.7,29.23,SW,220,9.9,13.4,8,-99.99,,,0.00,989,rob ver 1B,2013-06-05 20:17:00,
2013-06-05 13:18:00,103.7,33.0,29.23,SW,219,9.9,13.9,8,-99.99,,,0.00,986,rob ver 1B,2013-06-05 20:18:00,
2013-06-05 13:19:00,103.4,33.4,29.23,SW,226,10.6,15.4,8,-99.99,,,0.00,987,rob ver 1B,2013-06-05 20:19:00,
2013-06-05 13:20:00,99.6,35.4,29.29,SW,220,12.9,17.4,10,-99.99,,,0.00,995,rob ver 1A,2013-06-05 20:20:00,
2013-06-05 13:21:00,104.4,32.9,29.23,SSW,206,10.4,14.1,8,-99.99,,,0.00,981,rob ver 1B,2013-06-05 20:21:00,
2013-06-05 13:22:00,104.1,33.0,29.23,South,183,7.3,11.8,8,-99.99,,,0.00,980,rob ver 1B,2013-06-05 20:22:00,
2013-06-05 13:23:00,103.9,34.0,29.23,South,184,10.1,13.7,8,-99.99,,,0.00,982,rob ver 1B,2013-06-05 20:23:00,
2013-06-05 13:24:00,103.9,33.9,29.23,SSW,195,9.9,12.6,9,-99.99,,,0.00,978,rob ver 1B,2013-06-05 20:24:00,
2013-06-05 13:25:00,100.6,35.5,29.29,SSW,208,12.9,15.3,10,-99.99,,,0.00,991,rob ver 1A,2013-06-05 20:25:00,
2013-06-05 13:26:00,104.8,34.0,29.21,SSW,197,9.8,13.2,8,-99.99,,,0.00,978,rob ver 1B,2013-06-05 20:26:00,
2013-06-05 13:27:00,104.8,34.0,29.23,South,172,12.8,17.0,8,-99.99,,,0.00,978,rob ver 1B,2013-06-05 20:27:00,
2013-06-05 13:28:00,104.1,34.0,29.21,South,186,11.0,17.3,8,-99.99,,,0.00,978,rob ver 1B,2013-06-05 20:28:00,
2013-06-05 13:29:00,104.5,33.8,29.21,South,191,13.0,18.4,8,-99.99,,,0.00,981,rob ver 1B,2013-06-05 20:29:00,
2013-06-05 13:30:00,100.1,35.4,29.29,South,172,7.8,10.5,10,-99.99,,,0.00,987,rob ver 1A,2013-06-05 20:30:00,
2013-06-05 13:31:00,104.4,32.7,29.23,South,176,9.1,12.7,8,-99.99,,,0.00,977,rob ver 1B,2013-06-05 20:31:00,
2013-06-05 13:32:00,103.9,32.2,29.23,SSE,153,9.8,13.1,8,-99.99,,,0.00,975,rob ver 1B,2013-06-05 20:32:00,
2013-06-05 13:33:00,103.6,32.6,29.23,SSE,155,8.4,12.3,8,-99.99,,,0.00,969,rob ver 1B,2013-06-05 20:33:00,
2013-06-05 13:34:00,103.8,34.1,29.23,SSE,160,11.8,18.7,8,-99.99,,,0.00,971,rob ver 1B,2013-06-05 20:34:00,
2013-06-05 13:35:00,103.9,33.8,29.23,SSE,167,12.8,19.4,8,-99.99,,,0.00,970,rob ver 1B,2013-06-05 20:35:00,
2013-06-05 13:36:00,100.5,35.5,29.29,SSW,201,10.9,15.8,10,-99.99,,,0.00,981,rob ver 1A,2013-06-05 20:36:00,
2013-06-05 13:37:00,104.4,34.0,29.21,South,172,15.1,20.3,8,-99.99,,,0.00,970,rob ver 1B,2013-06-05 20:37:00,
2013-06-05 13:38:00,104.4,34.1,29.21,South,178,13.4,17.9,8,-99.99,,,0.00,973,rob ver 1B,2013-06-05 20:38:00,
2013-06-05 13:39:00,104.0,33.9,29.21,South,169,14.0,18.5,8,-99.99,,,0.00,972,rob ver 1B,2013-06-05 20:39:00,
2013-06-05 13:40:00,103.6,33.3,29.21,SSE,168,12.5,17.8,8,-99.99,,,0.00,964,rob ver 1B,2013-06-05 20:40:00,
2013-06-05 13:41:00,100.3,35.5,29.29,SW,235,7.6,9.2,10,-99.99,,,0.00,974,rob ver 1A,2013-06-05 20:41:00,
2013-06-05 13:42:00,104.0,33.3,29.21,South,172,12.1,16.1,8,-99.99,,,0.00,967,rob ver 1B,2013-06-05 20:42:00,
2013-06-05 13:43:00,104.2,33.6,29.21,South,173,11.4,14.7,8,-99.99,,,0.00,966,rob ver 1B,2013-06-05 20:43:00,
2013-06-05 13:44:00,104.8,33.8,29.21,South,179,12.0,15.6,8,-99.99,,,0.00,964,rob ver 1B,2013-06-05 20:44:00,
2013-06-05 13:45:00,105.6,33.7,29.21,South,180,12.5,16.4,8,-99.99,,,0.00,962,rob ver 1B,2013-06-05 20:45:00,
2013-06-05 13:46:00,100.3,35.4,29.29,SSW,213,5.1,7.3,10,-99.99,,,0.00,967,rob ver 1A,2013-06-05 20:46:00,
2013-06-05 13:47:00,105.9,33.2,29.21,South,178,12.8,15.5,8,-99.99,,,0.00,960,rob ver 1B,2013-06-05 20:47:00,
2013-06-05 13:48:00,105.4,32.9,29.21,South,177,14.4,18.9,8,-99.99,,,0.00,960,rob ver 1B,2013-06-05 20:48:00,
2013-06-05 13:49:00,104.9,32.8,29.21,South,169,10.6,13.0,8,-99.99,,,0.00,963,rob ver 1B,2013-06-05 20:49:00,
2013-06-05 13:50:00,105.0,33.1,29.21,South,181,13.9,18.7,8,-99.99,,,0.00,959,rob ver 1B,2013-06-05 20:50:00,
2013-06-05 13:51:00,101.0,35.6,29.26,SSW,199,7.8,14.8,10,-99.99,,,0.00,967,rob ver 1A,2013-06-05 20:51:00,
2013-06-05 13:52:00,105.7,33.8,29.21,SSW,204,13.0,17.8,8,-99.99,,,0.00,957,rob ver 1B,2013-06-05 20:52:00,
2013-06-05 13:53:00,106.1,33.4,29.21,South,189,14.9,19.8,8,-99.99,,,0.00,955,rob ver 1B,2013-06-05 20:53:00,
2013-06-05 13:54:00,105.7,32.9,29.21,South,185,14.0,17.8,8,-99.99,,,0.00,957,rob ver 1B,2013-06-05 20:54:00,
2013-06-05 13:55:00,105.1,32.7,29.21,South,174,12.4,15.8,8,-99.99,,,0.00,955,rob ver 1B,2013-06-05 20:55:00,
2013-06-05 13:56:00,105.2,32.4,29.21,South,175,11.1,14.3,8,-99.99,,,0.00,955,rob ver 1B,2013-06-05 20:56:00,
2013-06-05 13:57:00,100.7,35.3,29.26,SSW,208,11.6,16.3,10,-99.99,,,0.00,961,rob ver 1A,2013-06-05 20:57:00,
2013-06-05 13:58:00,104.8,32.6,29.21,SSW,196,13.0,17.0,8,-99.99,,,0.00,948,rob ver 1B,2013-06-05 20:58:00,
2013-06-05 13:59:00,104.4,32.8,29.21,South,173,7.9,11.5,8,-99.99,,,0.00,947,rob ver 1B,2013-06-05 20:59:00,
2013-06-05 14:00:00,104.3,32.4,29.21,South,173,6.5,8.7,8,-99.99,,,0.00,943,rob ver 1B,2013-06-05 21:00:00,
2013-06-05 14:01:00,104.6,32.1,29.21,SSE,155,11.7,14.7,8,-99.99,,,0.00,944,rob ver 1B,2013-06-05 21:01:00,
2013-06-05 14:02:00,100.9,35.0,29.26,SW,226,8.6,11.8,10,-99.99,,,0.00,953,rob ver 1A,2013-06-05 21:02:00,
2013-06-05 14:03:00,104.8,32.5,29.21,South,175,14.8,18.6,8,-99.99,,,0.00,944,rob ver 1B,2013-06-05 21:03:00,
2013-06-05 14:04:00,105.2,32.3,29.21,SSE,167,13.1,16.8,7,-99.99,,,0.00,943,rob ver 1B,2013-06-05 21:04:00,
2013-06-05 14:05:00,105.4,32.7,29.21,SSE,167,11.2,13.8,8,-99.99,,,0.00,939,rob ver 1B,2013-06-05 21:05:00,
2013-06-05 14:06:00,105.2,33.4,29.21,SSE,160,14.2,20.9,8,-99.99,,,0.00,938,rob ver 1B,2013-06-05 21:06:00,
2013-06-05 14:07:00,100.3,33.7,29.26,SSE,166,8.9,12.5,9,-99.99,,,0.00,947,rob ver 1A,2013-06-05 21:07:00,
2013-06-05 14:08:00,104.8,32.5,29.21,SSE,168,12.5,17.6,8,-99.99,,,0.00,938,rob ver 1B,2013-06-05 21:08:00,
2013-06-05 14:09:00,104.9,32.7,29.21,South,169,11.8,15.6,8,-99.99,,,0.00,933,rob ver 1B,2013-06-05 21:09:00,
2013-06-05 14:10:00,105.2,32.9,29.21,SSE,167,12.0,16.3,8,-99.99,,,0.00,930,rob ver 1B,2013-06-05 21:10:00,
2013-06-05 14:11:00,105.1,32.8,29.21,South,181,13.7,18.4,8,-99.99,,,0.00,930,rob ver 1B,2013-06-05 21:11:00,
2013-06-05 14:12:00,105.5,32.8,29.21,SSW,198,16.0,19.9,7,-99.99,,,0.00,932,rob ver 1B,2013-06-05 21:12:00,
2013-06-05 14:13:00,101.6,34.3,29.26,South,187,13.2,16.5,9,-99.99,,,0.00,935,rob ver 1A,2013-06-05 21:13:00,
2013-06-05 14:14:00,105.2,32.0,29.21,South,173,7.9,14.1,8,-99.99,,,0.00,926,rob ver 1B,2013-06-05 21:14:00,
2013-06-05 14:15:00,105.6,33.0,29.21,SSW,202,14.8,17.6,7,-99.99,,,0.00,929,rob ver 1B,2013-06-05 21:15:00,
2013-06-05 14:16:00,106.3,32.4,29.21,South,189,15.0,18.5,7,-99.99,,,0.00,929,rob ver 1B,2013-06-05 21:16:00,
2013-06-05 14:17:00,106.4,31.9,29.21,South,189,11.4,15.3,7,-99.99,,,0.00,926,rob ver 1B,2013-06-05 21:17:00,
2013-06-05 14:18:00,101.0,34.2,29.26,SSW,192,7.4,11.1,9,-99.99,,,0.00,934,rob ver 1A,2013-06-05 21:18:00,
2013-06-05 14:19:00,106.1,31.0,29.21,SSW,198,10.0,12.3,7,-99.99,,,0.00,924,rob ver 1B,2013-06-05 21:19:00,
2013-06-05 14:20:00,106.5,30.6,29.21,SSW,211,13.1,18.7,7,-99.99,,,0.00,920,rob ver 1B,2013-06-05 21:20:00,
2013-06-05 14:21:00,105.6,30.7,29.21,South,187,9.5,12.8,7,-99.99,,,0.00,917,rob ver 1B,2013-06-05 21:21:00,
2013-06-05 14:22:00,106.1,31.6,29.21,South,188,15.0,20.6,7,-99.99,,,0.00,917,rob ver 1B,2013-06-05 21:22:00,
2013-06-05 14:23:00,101.5,34.5,29.26,South,184,10.9,15.5,9,-99.99,,,0.00,924,rob ver 1A,2013-06-05 21:23:00,
2013-06-05 14:24:00,105.9,31.4,29.21,South,178,13.2,18.7,7,-99.99,,,0.00,913,rob ver 1B,2013-06-05 21:24:00,
2013-06-05 14:25:00,105.6,31.3,29.21,South,175,17.2,20.6,7,-99.99,,,0.00,913,rob ver 1B,2013-06-05 21:25:00,
2013-06-05 14:26:00,105.6,31.4,29.21,SSE,166,16.9,20.5,7,-99.99,,,0.00,913,rob ver 1B,2013-06-05 21:26:00,
2013-06-05 14:27:00,105.4,31.5,29.21,South,177,14.5,17.6,7,-99.99,,,0.00,907,rob ver 1B,2013-06-05 21:27:00,
2013-06-05 14:28:00,105.5,31.9,29.21,SSE,164,11.3,15.0,7,-99.99,,,0.00,907,rob ver 1B,2013-06-05 21:28:00,
2013-06-05 14:29:00,101.4,32.8,29.26,SW,232,9.3,11.0,9,-99.99,,,0.00,920,rob ver 1A,2013-06-05 21:29:00,
2013-06-05 14:30:00,105.9,31.4,29.21,SSW,192,11.4,16.2,7,-99.99,,,0.00,901,rob ver 1B,2013-06-05 21:30:00,
2013-06-05 14:31:00,106.3,31.7,29.21,South,191,11.2,15.8,7,-99.99,,,0.00,901,rob ver 1B,2013-06-05 21:31:00,
2013-06-05 14:32:00,106.1,32.0,29.21,South,182,12.8,18.9,6,-99.99,,,0.00,900,rob ver 1B,2013-06-05 21:32:00,
2013-06-05 14:33:00,106.1,30.8,29.21,SSE,167,15.1,18.7,7,-99.99,,,0.00,899,rob ver 1B,2013-06-05 21:33:00,
2013-06-05 14:34:00,102.1,34.6,29.26,SSW,205,12.5,16.1,9,-99.99,,,0.00,914,rob ver 1A,2013-06-05 21:34:00,
2013-06-05 14:35:00,105.3,31.5,29.21,SSW,193,13.6,18.2,7,-99.99,,,0.00,892,rob ver 1B,2013-06-05 21:35:00,
2013-06-05 14:36:00,105.2,31.9,29.21,South,185,12.0,14.3,7,-99.99,,,0.00,889,rob ver 1B,2013-06-05 21:36:00,
2013-06-05 14:37:00,105.1,31.8,29.21,South,188,6.8,10.0,8,-99.99,,,0.00,888,rob ver 1B,2013-06-05 21:37:00,
2013-06-05 14:38:00,105.5,31.5,29.21,South,176,11.2,18.5,7,-99.99,,,0.00,891,rob ver 1B,2013-06-05 21:38:00,
2013-06-05 14:39:00,101.9,32.1,29.26,SSW,213,8.8,11.7,8,-99.99,,,0.00,892,rob ver 1A,2013-06-05 21:39:00,
2013-06-05 14:40:00,105.4,28.8,29.21,South,185,11.7,16.3,6,-99.99,,,0.00,887,rob ver 1B,2013-06-05 21:40:00,
2013-06-05 14:41:00,106.2,26.5,29.21,South,173,15.7,19.1,5,-99.99,,,0.00,884,rob ver 1B,2013-06-05 21:41:00,
2013-06-05 14:42:00,106.3,25.4,29.21,SSE,165,12.5,17.1,6,-99.99,,,0.00,879,rob ver 1B,2013-06-05 21:42:00,
2013-06-05 14:43:00,106.2,26.7,29.21,South,178,11.2,14.7,7,-99.99,,,0.00,876,rob ver 1B,2013-06-05 21:43:00,
2013-06-05 14:44:00,106.3,30.7,29.21,South,177,10.9,16.0,7,-99.99,,,0.00,875,rob ver 1B,2013-06-05 21:44:00,
2013-06-05 14:45:00,101.2,32.5,29.26,South,184,10.1,11.8,9,-99.99,,,0.00,878,rob ver 1A,2013-06-05 21:45:00,
2013-06-05 14:46:00,106.9,29.9,29.21,SSW,196,12.2,18.2,6,-99.99,,,0.00,872,rob ver 1B,2013-06-05 21:46:00,
2013-06-05 14:47:00,107.6,30.5,29.21,South,172,14.9,21.1,6,-99.99,,,0.00,871,rob ver 1B,2013-06-05 21:47:00,
2013-06-05 14:48:00,107.0,30.4,29.18,South,187,16.3,19.8,7,-99.99,,,0.00,868,rob ver 1B,2013-06-05 21:48:00,
2013-06-05 14:49:00,106.4,30.1,29.18,South,189,14.9,17.6,7,-99.99,,,0.00,867,rob ver 1B,2013-06-05 21:49:00,
2013-06-05 14:50:00,102.5,31.7,29.26,South,169,10.9,16.2,8,-99.99,,,0.00,875,rob ver 1A,2013-06-05 21:50:00,
2013-06-05 14:51:00,106.2,27.2,29.18,SSW,197,16.0,18.6,6,-99.99,,,0.00,867,rob ver 1B,2013-06-05 21:51:00,
2013-06-05 14:52:00,106.3,28.4,29.21,SSW,199,11.1,15.1,7,-99.99,,,0.00,862,rob ver 1B,2013-06-05 21:52:00,
2013-06-05 14:53:00,106.6,29.3,29.18,South,186,16.2,19.9,6,-99.99,,,0.00,859,rob ver 1B,2013-06-05 21:53:00,
2013-06-05 14:54:00,106.6,28.2,29.21,South,189,13.8,16.8,6,-99.99,,,0.00,857,rob ver 1B,2013-06-05 21:54:00,
2013-06-05 14:55:00,106.2,28.7,29.21,SSE,165,8.8,10.8,6,-99.99,,,0.00,856,rob ver 1B,2013-06-05 21:55:00,
2013-06-05 14:56:00,101.2,31.9,29.26,ESE,117,7.7,11.1,8,-99.99,,,0.00,863,rob ver 1A,2013-06-05 21:56:00,
2013-06-05 14:57:00,106.1,29.2,29.18,SSW,209,12.7,15.9,7,-99.99,,,0.00,853,rob ver 1B,2013-06-05 21:57:00,
2013-06-05 14:58:00,105.9,28.8,29.18,SSW,205,11.2,18.7,6,-99.99,,,0.00,846,rob ver 1B,2013-06-05 21:58:00,
2013-06-05 14:59:00,106.2,27.4,29.18,South,177,13.7,16.8,6,-99.99,,,0.00,842,rob ver 1B,2013-06-05 21:59:00,
2013-06-05 15:00:00,106.2,29.3,29.18,South,169,13.2,17.3,6,-99.99,,,0.00,842,rob ver 1B,2013-06-05 22:00:00,
2013-06-05 15:01:00,102.7,33.3,29.26,SW,226,9.9,13.1,9,-99.99,,,0.00,845,rob ver 1A,2013-06-05 22:01:00,
2013-06-05 15:02:00,106.5,28.0,29.18,South,170,15.8,18.5,6,-99.99,,,0.00,838,rob ver 1B,2013-06-05 22:02:00,
2013-06-05 15:03:00,106.1,28.0,29.18,South,175,13.7,17.4,6,-99.99,,,0.00,836,rob ver 1B,2013-06-05 22:03:00,
2013-06-05 15:04:00,106.4,30.1,29.18,SSE,168,12.6,18.1,7,-99.99,,,0.00,835,rob ver 1B,2013-06-05 22:04:00,
2013-06-05 15:05:00,106.8,31.0,29.18,SSW,197,14.5,19.8,7,-99.99,,,0.00,833,rob ver 1B,2013-06-05 22:05:00,
2013-06-05 15:06:00,106.7,29.8,29.18,South,173,16.5,18.9,6,-99.99,,,0.00,829,rob ver 1B,2013-06-05 22:06:00,
2013-06-05 15:07:00,102.0,31.8,29.26,SW,230,12.4,15.2,8,-99.99,,,0.00,838,rob ver 1A,2013-06-05 22:07:00,
2013-06-05 15:08:00,106.0,29.7,29.18,SSE,164,12.8,15.3,7,-99.99,,,0.00,825,rob ver 1B,2013-06-05 22:08:00,
2013-06-05 15:09:00,106.0,30.2,29.18,SSE,159,12.8,15.7,7,-99.99,,,0.00,818,rob ver 1B,2013-06-05 22:09:00,
2013-06-05 15:10:00,105.9,30.9,29.18,SSE,162,11.0,15.8,7,-99.99,,,0.00,819,rob ver 1B,2013-06-05 22:10:00,
2013-06-05 15:11:00,105.8,31.0,29.18,South,174,14.0,19.1,7,-99.99,,,0.00,818,rob ver 1B,2013-06-05 22:11:00,
2013-06-05 15:12:00,102.1,29.2,29.26,WSW,237,12.3,17.2,7,-99.99,,,0.00,831,rob ver 1A,2013-06-05 22:12:00,
2013-06-05 15:13:00,105.9,30.4,29.18,SSE,167,13.1,15.7,7,-99.99,,,0.00,814,rob ver 1B,2013-06-05 22:13:00,
2013-06-05 15:14:00,106.1,31.2,29.18,SSE,165,15.4,19.4,7,-99.99,,,0.00,812,rob ver 1B,2013-06-05 22:14:00,
2013-06-05 15:15:00,106.3,31.2,29.18,SSE,161,15.2,19.1,7,-99.99,,,0.00,807,rob ver 1B,2013-06-05 22:15:00,
2013-06-05 15:16:00,106.2,30.6,29.18,South,177,12.6,16.8,7,-99.99,,,0.00,805,rob ver 1B,2013-06-05 22:16:00,
2013-06-05 15:17:00,101.9,32.1,29.26,South,178,10.8,13.1,8,-99.99,,,0.00,814,rob ver 1A,2013-06-05 22:17:00,
2013-06-05 15:18:00,107.4,29.5,29.18,South,191,16.3,19.0,6,-99.99,,,0.00,804,rob ver 1B,2013-06-05 22:18:00,
2013-06-05 15:19:00,106.8,30.0,29.18,South,181,15.2,18.6,7,-99.99,,,0.00,800,rob ver 1B,2013-06-05 22:19:00,
2013-06-05 15:20:00,106.4,29.8,29.18,SSW,192,12.9,17.1,6,-99.99,,,0.00,797,rob ver 1B,2013-06-05 22:20:00,
2013-06-05 15:21:00,106.4,28.8,29.18,South,175,13.3,16.6,6,-99.99,,,0.00,795,rob ver 1B,2013-06-05 22:21:00,
2013-06-05 15:22:00,106.6,29.1,29.18,South,170,14.0,17.9,6,-99.99,,,0.00,793,rob ver 1B,2013-06-05 22:22:00,
2013-06-05 15:23:00,102.5,30.9,29.23,SW,215,11.8,14.6,8,-99.99,,,0.00,806,rob ver 1A,2013-06-05 22:23:00,
2013-06-05 15:24:00,106.4,30.3,29.18,SSE,151,12.4,13.9,7,-99.99,,,0.00,788,rob ver 1B,2013-06-05 22:24:00,
2013-06-05 15:25:00,106.2,30.3,29.18,SSE,156,14.3,17.0,7,-99.99,,,0.00,785,rob ver 1B,2013-06-05 22:25:00,
2013-06-05 15:26:00,105.9,30.5,29.18,SSE,167,14.8,18.1,6,-99.99,,,0.00,783,rob ver 1B,2013-06-05 22:26:00,
2013-06-05 15:27:00,106.0,29.2,29.18,South,181,12.4,16.1,6,-99.99,,,0.00,780,rob ver 1B,2013-06-05 22:27:00,
2013-06-05 15:28:00,102.7,30.7,29.26,South,175,12.7,15.1,8,-99.99,,,0.00,788,rob ver 1A,2013-06-05 22:28:00,
2013-06-05 15:29:00,105.8,29.3,29.18,SSW,203,9.5,16.4,7,-99.99,,,0.00,771,rob ver 1B,2013-06-05 22:29:00,
2013-06-05 15:30:00,106.4,31.0,29.18,South,174,15.8,19.0,7,-99.99,,,0.00,772,rob ver 1B,2013-06-05 22:30:00,
2013-06-05 15:31:00,106.5,30.5,29.18,SSE,165,17.0,22.0,7,-99.99,,,0.00,767,rob ver 1B,2013-06-05 22:31:00,
2013-06-05 15:32:00,106.7,30.0,29.18,SSE,163,15.8,20.0,6,-99.99,,,0.00,769,rob ver 1B,2013-06-05 22:32:00,
2013-06-05 15:33:00,102.6,28.3,29.23,SSW,213,12.8,19.5,6,-99.99,,,0.00,784,rob ver 1A,2013-06-05 22:33:00,
2013-06-05 15:34:00,106.8,29.1,29.18,SSE,148,14.3,16.7,6,-99.99,,,0.00,762,rob ver 1B,2013-06-05 22:34:00,
2013-06-05 15:35:00,106.6,29.5,29.18,SSE,168,14.0,16.7,7,-99.99,,,0.00,761,rob ver 1B,2013-06-05 22:35:00,
2013-06-05 15:36:00,106.2,29.9,29.18,SSE,165,14.8,18.5,7,-99.99,,,0.00,759,rob ver 1B,2013-06-05 22:36:00,
2013-06-05 15:37:00,106.2,29.5,29.18,SSE,152,13.8,16.6,6,-99.99,,,0.00,757,rob ver 1B,2013-06-05 22:37:00,
2013-06-05 15:38:00,102.4,28.1,29.23,SW,214,6.4,8.3,7,-99.99,,,0.00,763,rob ver 1A,2013-06-05 22:38:00,
2013-06-05 15:39:00,106.1,27.8,29.18,South,169,11.9,15.2,6,-99.99,,,0.00,751,rob ver 1B,2013-06-05 22:39:00,
2013-06-05 15:40:00,106.7,28.6,29.18,South,176,12.9,17.4,6,-99.99,,,0.00,748,rob ver 1B,2013-06-05 22:40:00,
2013-06-05 15:41:00,107.2,29.5,29.18,South,171,13.6,17.9,6,-99.99,,,0.00,746,rob ver 1B,2013-06-05 22:41:00,
2013-06-05 15:42:00,107.0,27.8,29.18,SSE,168,14.3,18.2,6,-99.99,,,0.00,744,rob ver 1B,2013-06-05 22:42:00,
2013-06-05 15:43:00,106.6,28.5,29.18,SSE,154,12.5,15.0,6,-99.99,,,0.00,739,rob ver 1B,2013-06-05 22:43:00,
2013-06-05 15:44:00,103.0,28.2,29.23,SSW,211,4.8,6.9,7,-99.99,,,0.00,753,rob ver 1A,2013-06-05 22:44:00,
2013-06-05 15:45:00,106.1,28.7,29.18,SSE,160,15.7,19.1,6,-99.99,,,0.00,734,rob ver 1B,2013-06-05 22:45:00,
2013-06-05 15:46:00,105.9,29.3,29.18,SSE,167,13.6,17.6,6,-99.99,,,0.00,733,rob ver 1B,2013-06-05 22:46:00,
2013-06-05 15:47:00,105.8,29.2,29.18,South,169,9.7,11.3,6,-99.99,,,0.00,729,rob ver 1B,2013-06-05 22:47:00,
2013-06-05 15:48:00,106.2,28.4,29.18,South,171,12.9,16.8,6,-99.99,,,0.00,727,rob ver 1B,2013-06-05 22:48:00,
2013-06-05 15:49:00,102.7,26.2,29.23,SSW,203,9.4,13.3,6,-99.99,,,0.00,739,rob ver 1A,2013-06-05 22:49:00,
2013-06-05 15:50:00,106.9,29.0,29.18,South,178,14.1,18.6,6,-99.99,,,0.00,722,rob ver 1B,2013-06-05 22:50:00,
2013-06-05 15:51:00,106.5,28.9,29.18,South,171,11.8,15.6,6,-99.99,,,0.00,719,rob ver 1B,2013-06-05 22:51:00,
2013-06-05 15:52:00,106.7,28.2,29.18,South,177,13.5,15.5,6,-99.99,,,0.00,717,rob ver 1B,2013-06-05 22:52:00,
2013-06-05 15:53:00,106.8,28.0,29.18,South,186,13.4,15.7,6,-99.99,,,0.00,713,rob ver 1B,2013-06-05 22:53:00,
2013-06-05 15:54:00,102.6,26.0,29.23,SSW,203,9.9,12.6,6,-99.99,,,0.00,726,rob ver 1A,2013-06-05 22:54:00,
2013-06-05 15:55:00,107.2,27.6,29.18,South,170,13.4,16.3,6,-99.99,,,0.00,708,rob ver 1B,2013-06-05 22:55:00,
2013-06-05 15:56:00,106.6,28.1,29.18,SSE,168,13.8,18.0,6,-99.99,,,0.00,705,rob ver 1B,2013-06-05 22:56:00,
2013-06-05 15:57:00,106.5,28.1,29.18,South,178,11.5,14.1,6,-99.99,,,0.00,703,rob ver 1B,2013-06-05 22:57:00,
2013-06-05 15:58:00,107.0,28.3,29.18,South,189,13.6,17.7,6,-99.99,,,0.00,699.8,rob ver 1B,2013-06-05 22:58:00,
2013-06-05 15:59:00,107.3,28.3,29.18,South,173,14.2,16.9,6,-99.99,,,0.00,696.3,rob ver 1B,2013-06-05 22:59:00,
2013-06-05 16:00:00,102.4,24.4,29.23,SSW,213,7.8,12.1,6,-99.99,,,0.00,705,rob ver 1A,2013-06-05 23:00:00,
2013-06-05 16:01:00,107.2,28.0,29.15,South,182,15.4,18.5,6,-99.99,,,0.00,691.3,rob ver 1B,2013-06-05 23:01:00,
2013-06-05 16:02:00,106.8,28.1,29.18,South,174,12.7,15.1,6,-99.99,,,0.00,688.6,rob ver 1B,2013-06-05 23:02:00,
2013-06-05 16:03:00,106.5,27.9,29.18,SSE,167,11.6,15.0,6,-99.99,,,0.00,686.4,rob ver 1B,2013-06-05 23:03:00,
2013-06-05 16:04:00,106.7,27.9,29.18,SSE,165,13.8,16.6,6,-99.99,,,0.00,683.7,rob ver 1B,2013-06-05 23:04:00,
2013-06-05 16:05:00,103.1,26.8,29.23,SSW,210,7.9,11.1,6,-99.99,,,0.00,688.9,rob ver 1A,2013-06-05 23:05:00,
2013-06-05 16:06:00,106.8,29.5,29.15,South,175,15.7,19.5,7,-99.99,,,0.00,676.2,rob ver 1B,2013-06-05 23:06:00,
2013-06-05 16:07:00,106.4,30.0,29.18,South,178,12.9,15.5,7,-99.99,,,0.00,673.1,rob ver 1B,2013-06-05 23:07:00,
2013-06-05 16:08:00,106.6,30.2,29.18,South,177,10.8,12.7,7,-99.99,,,0.00,670.5,rob ver 1B,2013-06-05 23:08:00,
2013-06-05 16:09:00,106.7,30.4,29.18,SSE,168,14.5,18.5,7,-99.99,,,0.00,667.7,rob ver 1B,2013-06-05 23:09:00,
2013-06-05 16:10:00,102.7,29.1,29.23,SW,217,5.8,10.5,8,-99.99,,,0.00,670.3,rob ver 1A,2013-06-05 23:10:00,
2013-06-05 16:11:00,106.4,30.4,29.15,SSE,164,15.6,20.4,7,-99.99,,,0.00,661.3,rob ver 1B,2013-06-05 23:11:00,
2013-06-05 16:12:00,106.4,30.3,29.15,SSE,168,14.0,17.0,7,-99.99,,,0.00,658.4,rob ver 1B,2013-06-05 23:12:00,
2013-06-05 16:13:00,106.6,31.1,29.15,South,180,12.8,17.3,7,-99.99,,,0.00,655.6,rob ver 1B,2013-06-05 23:13:00,
2013-06-05 16:14:00,106.6,31.3,29.15,South,179,11.6,18.8,7,-99.99,,,0.00,652.8,rob ver 1B,2013-06-05 23:14:00,
2013-06-05 16:15:00,102.3,27.6,29.23,South,179,9.8,12.8,7,-99.99,,,0.00,662.1,rob ver 1A,2013-06-05 23:15:00,
2013-06-05 16:16:00,106.7,31.1,29.15,SSE,159,12.4,15.4,7,-99.99,,,0.00,645.1,rob ver 1B,2013-06-05 23:16:00,
2013-06-05 16:17:00,106.9,31.1,29.15,SSE,161,12.0,16.9,7,-99.99,,,0.00,644.6,rob ver 1B,2013-06-05 23:17:00,
2013-06-05 16:18:00,106.6,30.8,29.15,South,175,10.9,15.3,7,-99.99,,,0.00,641.2,rob ver 1B,2013-06-05 23:18:00,
2013-06-05 16:19:00,107.0,30.5,29.15,SSE,166,11.8,14.2,6,-99.99,,,0.00,639.1,rob ver 1B,2013-06-05 23:19:00,
2013-06-05 16:20:00,107.0,30.0,29.15,South,173,12.6,15.0,6,-99.99,,,0.00,635,rob ver 1B,2013-06-05 23:20:00,
2013-06-05 16:21:00,107.0,29.6,29.15,South,177,12.8,16.4,6,-99.99,,,0.00,634.1,rob ver 1B,2013-06-05 23:21:00,
2013-06-05 16:22:00,107.3,29.3,29.15,South,176,13.2,16.0,6,-99.99,,,0.00,630.2,rob ver 1B,2013-06-05 23:22:00,
2013-06-05 16:23:00,107.7,29.0,29.15,South,183,15.1,17.7,6,-99.99,,,0.00,627.1,rob ver 1B,2013-06-05 23:23:00,
2013-06-05 16:24:00,107.6,28.7,29.15,South,169,14.0,17.4,6,-99.99,,,0.00,625,rob ver 1B,2013-06-05 23:24:00,
2013-06-05 16:25:00,107.2,28.8,29.15,SSE,165,12.1,14.5,6,-99.99,,,0.00,621.9,rob ver 1B,2013-06-05 23:25:00,
2013-06-05 16:26:00,107.2,28.8,29.15,SSW,194,14.0,19.6,6,-99.99,,,0.00,618.4,rob ver 1B,2013-06-05 23:26:00,
2013-06-05 16:27:00,106.9,28.5,29.15,South,175,13.8,19.1,6,-99.99,,,0.00,613.4,rob ver 1B,2013-06-05 23:27:00,
2013-06-05 16:28:00,107.0,29.1,29.15,SSW,193,14.8,18.6,6,-99.99,,,0.00,612.9,rob ver 1B,2013-06-05 23:28:00,
2013-06-05 16:29:00,106.9,29.1,29.15,South,190,12.6,16.3,6,-99.99,,,0.00,609.1,rob ver 1B,2013-06-05 23:29:00,
2013-06-05 16:30:00,106.7,29.3,29.15,South,169,13.5,17.7,6,-99.99,,,0.00,606.3,rob ver 1B,2013-06-05 23:30:00,
2013-06-05 16:31:00,106.6,29.0,29.15,South,173,13.0,14.7,6,-99.99,,,0.00,602.9,rob ver 1B,2013-06-05 23:31:00,
2013-06-05 16:32:00,106.8,29.0,29.15,South,172,12.6,16.0,6,-99.99,,,0.00,600.1,rob ver 1B,2013-06-05 23:32:00,
2013-06-05 16:33:00,106.9,29.1,29.15,South,172,9.5,11.4,6,-99.99,,,0.00,596.7,rob ver 1B,2013-06-05 23:33:00,
2013-06-05 16:34:00,106.9,28.9,29.15,South,181,11.9,17.4,6,-99.99,,,0.00,594.4,rob ver 1B,2013-06-05 23:34:00,
2013-06-05 16:35:00,107.2,29.1,29.15,SSW,199,15.2,18.5,6,-99.99,,,0.00,590.1,rob ver 1B,2013-06-05 23:35:00,
2013-06-05 16:36:00,107.1,29.1,29.15,SSW,207,15.2,19.8,6,-99.99,,,0.00,586.9,rob ver 1B,2013-06-05 23:36:00,
2013-06-05 16:37:00,106.8,29.3,29.15,SSW,203,13.0,15.8,6,-99.99,,,0.00,583.6,rob ver 1B,2013-06-05 23:37:00,
2013-06-05 16:38:00,107.1,29.4,29.15,South,182,12.0,14.7,6,-99.99,,,0.00,580.5,rob ver 1B,2013-06-05 23:38:00,
2013-06-05 16:39:00,107.3,29.3,29.15,South,186,10.4,14.4,6,-99.99,,,0.00,575.7,rob ver 1B,2013-06-05 23:39:00,
2013-06-05 16:40:00,107.5,29.7,29.15,South,186,13.3,18.1,6,-99.99,,,0.00,573.1,rob ver 1B,2013-06-05 23:40:00,
2013-06-05 16:41:00,107.5,29.4,29.15,South,178,16.2,19.7,6,-99.99,,,0.00,571.5,rob ver 1B,2013-06-05 23:41:00,
2013-06-05 16:42:00,107.2,29.4,29.15,South,185,12.7,16.4,6,-99.99,,,0.00,568,rob ver 1B,2013-06-05 23:42:00,
2013-06-05 16:43:00,106.9,29.4,29.15,South,180,11.7,14.5,6,-99.99,,,0.00,565.1,rob ver 1B,2013-06-05 23:43:00,
2013-06-05 16:44:00,107.1,29.5,29.15,SSE,165,12.9,15.9,6,-99.99,,,0.00,562.3,rob ver 1B,2013-06-05 23:44:00,
2013-06-05 16:45:00,107.3,29.5,29.15,South,185,14.4,19.1,6,-99.99,,,0.00,560.4,rob ver 1B,2013-06-05 23:45:00,
2013-06-05 16:46:00,106.8,29.1,29.15,South,173,13.0,19.3,6,-99.99,,,0.00,557.3,rob ver 1B,2013-06-05 23:46:00,
2013-06-05 16:47:00,106.6,29.0,29.15,South,169,14.4,18.6,6,-99.99,,,0.00,554.6,rob ver 1B,2013-06-05 23:47:00,
2013-06-05 16:48:00,106.9,29.0,29.15,South,180,14.9,18.0,6,-99.99,,,0.00,549.6,rob ver 1B,2013-06-05 23:48:00,
2013-06-05 16:49:00,107.1,29.0,29.15,South,172,15.3,18.7,6,-99.99,,,0.00,546.1,rob ver 1B,2013-06-05 23:49:00,
2013-06-05 16:50:00,106.6,28.8,29.15,South,174,13.0,16.4,6,-99.99,,,0.00,542.5,rob ver 1B,2013-06-05 23:50:00,
2013-06-05 16:51:00,106.5,29.2,29.15,South,178,14.4,20.0,6,-99.99,,,0.00,539.8,rob ver 1B,2013-06-05 23:51:00,
2013-06-05 16:52:00,106.4,29.4,29.15,SSE,151,13.3,16.1,6,-99.99,,,0.00,536.5,rob ver 1B,2013-06-05 23:52:00,
2013-06-05 16:53:00,106.3,29.5,29.15,South,169,14.0,17.0,6,-99.99,,,0.00,532.6,rob ver 1B,2013-06-05 23:53:00,
2013-06-05 16:54:00,106.4,29.6,29.15,SSE,163,13.2,15.4,6,-99.99,,,0.00,529.1,rob ver 1B,2013-06-05 23:54:00,
2013-06-05 16:55:00,106.3,29.6,29.15,SSE,166,11.8,13.5,7,-99.99,,,0.00,525.8,rob ver 1B,2013-06-05 23:55:00,
2013-06-05 16:56:00,106.4,29.7,29.15,South,169,12.9,15.6,6,-99.99,,,0.00,522.4,rob ver 1B,2013-06-05 23:56:00,
2013-06-05 16:57:00,106.4,29.8,29.15,South,170,13.9,17.6,7,-99.99,,,0.00,519.3,rob ver 1B,2013-06-05 23:57:00,
2013-06-05 16:58:00,106.8,29.8,29.15,SSW,193,14.2,18.0,6,-99.99,,,0.00,516.5,rob ver 1B,2013-06-05 23:58:00,
2013-06-05 16:59:00,107.1,29.9,29.15,South,184,15.4,18.1,6,-99.99,,,0.00,513.2,rob ver 1B,2013-06-05 23:59:00,
2013-06-05 17:00:00,106.9,29.9,29.15,South,178,13.6,18.5,7,-99.99,,,0.00,509.5,rob ver 1B,2013-06-06 00:00:00,
2013-06-05 17:01:00,106.7,29.8,29.15,South,181,13.4,18.3,7,-99.99,,,0.00,506.7,rob ver 1B,2013-06-06 00:01:00,
2013-06-05 17:02:00,106.7,29.9,29.15,South,184,13.3,14.9,7,-99.99,,,0.00,503.4,rob ver 1B,2013-06-06 00:02:00,
2013-06-05 17:03:00,106.5,30.2,29.15,South,177,12.6,15.2,7,-99.99,,,0.00,499.2,rob ver 1B,2013-06-06 00:03:00,
2013-06-05 17:04:00,106.7,30.5,29.15,South,173,11.4,14.2,7,-99.99,,,0.00,495.6,rob ver 1B,2013-06-06 00:04:00,
2013-06-05 17:05:00,106.6,30.6,29.15,SSE,168,13.7,17.1,7,-99.99,,,0.00,493.3,rob ver 1B,2013-06-06 00:05:00,
2013-06-05 17:06:00,106.5,30.5,29.15,South,177,13.3,18.0,7,-99.99,,,0.00,489.2,rob ver 1B,2013-06-06 00:06:00,
2013-06-05 17:07:00,106.9,30.5,29.15,South,177,11.0,16.2,7,-99.99,,,0.00,486.9,rob ver 1B,2013-06-06 00:07:00,
2013-06-05 17:08:00,107.0,30.3,29.15,SSW,194,13.7,17.9,6,-99.99,,,0.00,482.6,rob ver 1B,2013-06-06 00:08:00,
2013-06-05 17:09:00,106.9,30.2,29.15,South,186,11.9,14.4,7,-99.99,,,0.00,479.7,rob ver 1B,2013-06-06 00:09:00,
2013-06-05 17:10:00,107.2,30.5,29.15,South,190,12.3,17.0,7,-99.99,,,0.00,475.6,rob ver 1B,2013-06-06 00:10:00,
2013-06-05 17:11:00,107.1,30.1,29.15,SSW,193,14.8,17.9,6,-99.99,,,0.00,472.7,rob ver 1B,2013-06-06 00:11:00,
2013-06-05 17:12:00,107.0,29.9,29.15,South,188,15.3,18.5,7,-99.99,,,0.00,469.9,rob ver 1B,2013-06-06 00:12:00,
2013-06-05 17:13:00,106.9,30.0,29.15,South,191,12.0,15.9,6,-99.99,,,0.00,464.8,rob ver 1B,2013-06-06 00:13:00,
2013-06-05 17:14:00,106.9,30.2,29.15,South,190,12.7,16.5,7,-99.99,,,0.00,461.2,rob ver 1B,2013-06-06 00:14:00,
2013-06-05 17:15:00,106.8,29.9,29.15,South,182,12.4,15.5,6,-99.99,,,0.00,458.8,rob ver 1B,2013-06-06 00:15:00,
2013-06-05 17:16:00,106.9,29.8,29.15,South,177,11.1,13.2,6,-99.99,,,0.00,455.7,rob ver 1B,2013-06-06 00:16:00,
2013-06-05 17:17:00,107.3,29.8,29.15,SSE,165,12.3,14.6,6,-99.99,,,0.00,451.9,rob ver 1B,2013-06-06 00:17:00,
2013-06-05 17:18:00,107.0,29.8,29.15,South,175,12.6,18.2,6,-99.99,,,0.00,448.6,rob ver 1B,2013-06-06 00:18:00,
2013-06-05 17:19:00,106.8,29.9,29.15,South,176,14.7,18.0,7,-99.99,,,0.00,445.2,rob ver 1B,2013-06-06 00:19:00,
2013-06-05 17:20:00,106.7,30.0,29.15,South,186,14.0,16.9,7,-99.99,,,0.00,441.4,rob ver 1B,2013-06-06 00:20:00,
2013-06-05 17:21:00,106.7,30.0,29.12,South,190,14.7,17.8,7,-99.99,,,0.00,438.5,rob ver 1B,2013-06-06 00:21:00,
2013-06-05 17:22:00,106.5,29.9,29.15,SSW,198,12.5,16.2,7,-99.99,,,0.00,435.2,rob ver 1B,2013-06-06 00:22:00,
2013-06-05 17:23:00,106.4,29.9,29.15,South,187,11.6,18.4,7,-99.99,,,0.00,431.8,rob ver 1B,2013-06-06 00:23:00,
2013-06-05 17:24:00,106.6,30.3,29.15,South,188,12.7,17.1,7,-99.99,,,0.00,428.5,rob ver 1B,2013-06-06 00:24:00,
2013-06-05 17:25:00,106.5,30.2,29.15,South,182,11.1,14.3,7,-99.99,,,0.00,424.9,rob ver 1B,2013-06-06 00:25:00,
2013-06-05 17:26:00,106.5,30.1,29.15,South,179,13.7,16.5,7,-99.99,,,0.00,422,rob ver 1B,2013-06-06 00:26:00,
2013-06-05 17:27:00,106.6,30.1,29.15,South,178,13.4,17.2,7,-99.99,,,0.00,418.7,rob ver 1B,2013-06-06 00:27:00,
2013-06-05 17:28:00,106.6,30.3,29.15,South,185,13.9,16.6,7,-99.99,,,0.00,414.8,rob ver 1B,2013-06-06 00:28:00,
2013-06-05 17:29:00,106.5,30.2,29.15,South,183,11.4,15.0,7,-99.99,,,0.00,411.8,rob ver 1B,2013-06-06 00:29:00,
2013-06-05 17:30:00,106.3,30.3,29.15,South,185,12.6,16.2,7,-99.99,,,0.00,407.9,rob ver 1B,2013-06-06 00:30:00,
2013-06-05 17:31:00,106.5,30.4,29.12,South,183,14.7,17.6,7,-99.99,,,0.00,403.5,rob ver 1B,2013-06-06 00:31:00,
2013-06-05 17:32:00,106.4,30.3,29.15,South,177,13.9,17.3,7,-99.99,,,0.00,400.5,rob ver 1B,2013-06-06 00:32:00,
2013-06-05 17:33:00,106.4,30.1,29.15,South,174,13.1,15.5,7,-99.99,,,0.00,397.6,rob ver 1B,2013-06-06 00:33:00,
2013-06-05 17:34:00,106.5,30.1,29.15,South,180,12.9,18.2,7,-99.99,,,0.00,394.5,rob ver 1B,2013-06-06 00:34:00,
2013-06-05 17:35:00,106.6,30.7,29.12,South,188,15.9,19.5,7,-99.99,,,0.00,391.7,rob ver 1B,2013-06-06 00:35:00,
2013-06-05 17:36:00,106.6,30.1,29.12,South,180,14.0,15.9,7,-99.99,,,0.00,387.9,rob ver 1B,2013-06-06 00:36:00,
2013-06-05 17:37:00,106.3,29.9,29.15,South,171,10.8,14.7,7,-99.99,,,0.00,383.4,rob ver 1B,2013-06-06 00:37:00,
2013-06-05 17:38:00,106.3,30.1,29.12,South,180,13.6,17.5,7,-99.99,,,0.00,380.7,rob ver 1B,2013-06-06 00:38:00,
2013-06-05 17:39:00,106.2,30.0,29.15,South,180,14.0,16.8,7,-99.99,,,0.00,377.1,rob ver 1B,2013-06-06 00:39:00,
2013-06-05 17:40:00,106.0,30.0,29.15,South,170,13.1,16.5,7,-99.99,,,0.00,373.4,rob ver 1B,2013-06-06 00:40:00,
2013-06-05 17:41:00,106.1,29.9,29.15,SSE,167,13.2,16.9,7,-99.99,,,0.00,369.4,rob ver 1B,2013-06-06 00:41:00,
2013-06-05 17:42:00,106.3,29.5,29.15,South,176,13.2,16.1,6,-99.99,,,0.00,364.2,rob ver 1B,2013-06-06 00:42:00,
2013-06-05 17:43:00,106.5,29.7,29.15,South,175,12.8,16.0,6,-99.99,,,0.00,360.9,rob ver 1B,2013-06-06 00:43:00,
2013-06-05 17:44:00,106.6,29.7,29.12,South,179,13.9,16.0,7,-99.99,,,0.00,358.2,rob ver 1B,2013-06-06 00:44:00,
2013-06-05 17:45:00,106.4,29.9,29.15,South,181,12.0,14.5,7,-99.99,,,0.00,355.2,rob ver 1B,2013-06-06 00:45:00,
2013-06-05 17:46:00,106.5,30.0,29.12,South,190,12.7,16.7,7,-99.99,,,0.00,352.1,rob ver 1B,2013-06-06 00:46:00,
2013-06-05 17:47:00,106.4,30.2,29.12,South,183,13.9,19.6,7,-99.99,,,0.00,349,rob ver 1B,2013-06-06 00:47:00,
2013-06-05 17:48:00,106.5,30.4,29.12,South,186,14.2,18.7,7,-99.99,,,0.00,344.9,rob ver 1B,2013-06-06 00:48:00,
2013-06-05 17:49:00,106.9,30.5,29.12,South,184,14.1,18.1,7,-99.99,,,0.00,341.2,rob ver 1B,2013-06-06 00:49:00,
2013-06-05 17:50:00,106.7,30.2,29.12,South,184,13.7,16.6,7,-99.99,,,0.00,337.7,rob ver 1B,2013-06-06 00:50:00,
2013-06-05 17:51:00,106.5,30.3,29.12,South,181,12.7,16.1,7,-99.99,,,0.00,334.6,rob ver 1B,2013-06-06 00:51:00,
2013-06-05 17:52:00,106.6,30.2,29.12,South,179,12.9,15.6,7,-99.99,,,0.00,331.5,rob ver 1B,2013-06-06 00:52:00,
2013-06-05 17:53:00,106.5,30.2,29.12,South,179,12.9,15.7,7,-99.99,,,0.00,327.6,rob ver 1B,2013-06-06 00:53:00,
2013-06-05 17:54:00,106.3,30.2,29.12,South,181,14.0,16.7,7,-99.99,,,0.00,323.6,rob ver 1B,2013-06-06 00:54:00,
2013-06-05 17:55:00,106.3,30.3,29.15,South,180,15.3,18.3,7,-99.99,,,0.00,320.4,rob ver 1B,2013-06-06 00:55:00,
2013-06-05 17:56:00,106.2,30.4,29.12,South,180,15.3,17.3,7,-99.99,,,0.00,317.1,rob ver 1B,2013-06-06 00:56:00,
2013-06-05 17:57:00,106.1,30.5,29.15,South,172,14.0,16.4,7,-99.99,,,0.00,313.2,rob ver 1B,2013-06-06 00:57:00,
2013-06-05 17:58:00,106.1,30.4,29.15,South,176,14.3,16.9,7,-99.99,,,0.00,309.4,rob ver 1B,2013-06-06 00:58:00,
2013-06-05 17:59:00,106.0,30.4,29.15,SSE,166,13.6,16.5,7,-99.99,,,0.00,306.6,rob ver 1B,2013-06-06 00:59:00,
2013-06-05 18:00:00,105.9,30.3,29.12,South,182,13.2,16.5,7,-99.99,,,0.00,302.7,rob ver 1B,2013-06-06 01:00:00,
2013-06-05 18:01:00,106.3,30.5,29.12,South,182,12.6,17.2,7,-99.99,,,0.00,299.3,rob ver 1B,2013-06-06 01:01:00,
2013-06-05 18:02:00,106.3,30.4,29.12,South,176,13.6,16.8,7,-99.99,,,0.00,296.2,rob ver 1B,2013-06-06 01:02:00,
2013-06-05 18:03:00,106.1,29.9,29.12,South,178,14.7,17.7,7,-99.99,,,0.00,292.2,rob ver 1B,2013-06-06 01:03:00,
2013-06-05 18:04:00,105.9,29.9,29.12,South,178,14.0,17.7,7,-99.99,,,0.00,289.1,rob ver 1B,2013-06-06 01:04:00,
2013-06-05 18:05:00,106.0,30.1,29.12,South,184,15.5,18.6,7,-99.99,,,0.00,285.4,rob ver 1B,2013-06-06 01:05:00,
2013-06-05 18:06:00,105.9,30.0,29.12,South,180,13.3,15.9,7,-99.99,,,0.00,282.4,rob ver 1B,2013-06-06 01:06:00,
2013-06-05 18:07:00,106.0,29.6,29.12,South,181,13.7,16.9,7,-99.99,,,0.00,279.2,rob ver 1B,2013-06-06 01:07:00,
2013-06-05 18:08:00,106.0,30.0,29.12,South,184,12.4,14.9,7,-99.99,,,0.00,275.9,rob ver 1B,2013-06-06 01:08:00,
2013-06-05 18:09:00,106.0,30.2,29.12,South,184,13.7,17.6,7,-99.99,,,0.00,272.9,rob ver 1B,2013-06-06 01:09:00,
2013-06-05 18:10:00,106.1,30.2,29.12,South,183,12.8,15.6,7,-99.99,,,0.00,268.9,rob ver 1B,2013-06-06 01:10:00,
2013-06-05 18:11:00,106.1,30.1,29.12,South,182,13.8,18.5,7,-99.99,,,0.00,266.1,rob ver 1B,2013-06-06 01:11:00,
2013-06-05 18:12:00,105.9,29.9,29.12,South,191,13.0,16.5,7,-99.99,,,0.00,262.1,rob ver 1B,2013-06-06 01:12:00,
2013-06-05 18:13:00,105.9,30.2,29.12,SSW,196,11.0,13.2,7,-99.99,,,0.00,258.9,rob ver 1B,2013-06-06 01:13:00,
2013-06-05 18:14:00,106.1,30.2,29.12,SSW,194,13.2,17.4,7,-99.99,,,0.00,254.9,rob ver 1B,2013-06-06 01:14:00,
2013-06-05 18:15:00,106.2,30.1,29.12,SSW,195,13.7,16.6,7,-99.99,,,0.00,251.7,rob ver 1B,2013-06-06 01:15:00,
2013-06-05 18:16:00,106.0,30.0,29.12,South,185,12.3,16.1,7,-99.99,,,0.00,247.7,rob ver 1B,2013-06-06 01:16:00,
2013-06-05 18:17:00,106.0,30.0,29.12,South,183,12.2,14.1,7,-99.99,,,0.00,243.8,rob ver 1B,2013-06-06 01:17:00,
2013-06-05 18:18:00,106.1,30.1,29.12,South,187,12.2,15.6,7,-99.99,,,0.00,240.4,rob ver 1B,2013-06-06 01:18:00,
2013-06-05 18:19:00,106.0,29.9,29.12,South,183,12.6,16.0,7,-99.99,,,0.00,237.1,rob ver 1B,2013-06-06 01:19:00,
2013-06-05 18:20:00,105.9,29.8,29.12,South,177,13.2,16.1,7,-99.99,,,0.00,234,rob ver 1B,2013-06-06 01:20:00,
2013-06-05 18:21:00,105.9,29.8,29.12,South,174,13.6,15.8,7,-99.99,,,0.00,230.9,rob ver 1B,2013-06-06 01:21:00,
2013-06-05 18:22:00,105.7,29.8,29.12,South,183,12.7,15.5,7,-99.99,,,0.00,227.5,rob ver 1B,2013-06-06 01:22:00,
2013-06-05 18:23:00,105.8,29.7,29.12,South,180,11.4,15.1,7,-99.99,,,0.00,224.2,rob ver 1B,2013-06-06 01:23:00,
2013-06-05 18:24:00,105.9,29.9,29.12,South,186,12.3,14.9,7,-99.99,,,0.00,220.9,rob ver 1B,2013-06-06 01:24:00,
2013-06-05 18:25:00,106.0,29.9,29.12,South,181,13.5,16.1,7,-99.99,,,0.00,217.6,rob ver 1B,2013-06-06 01:25:00,
2013-06-05 18:26:00,105.9,29.9,29.12,South,188,11.1,12.9,7,-99.99,,,0.00,214.4,rob ver 1B,2013-06-06 01:26:00,
2013-06-05 18:27:00,105.9,29.7,29.12,South,190,13.6,17.3,7,-99.99,,,0.00,211.1,rob ver 1B,2013-06-06 01:27:00,
2013-06-05 18:28:00,105.9,29.7,29.12,South,183,14.0,16.6,7,-99.99,,,0.00,207.2,rob ver 1B,2013-06-06 01:28:00,
2013-06-05 18:29:00,105.8,29.6,29.12,South,185,14.4,16.7,7,-99.99,,,0.00,203.6,rob ver 1B,2013-06-06 01:29:00,
2013-06-05 18:30:00,105.7,29.8,29.12,SSW,192,13.2,16.1,7,-99.99,,,0.00,200.6,rob ver 1B,2013-06-06 01:30:00,
2013-06-05 18:31:00,105.7,29.7,29.12,South,190,12.8,17.1,7,-99.99,,,0.00,197,rob ver 1B,2013-06-06 01:31:00,
2013-06-05 18:32:00,105.7,29.8,29.12,South,183,13.0,15.5,7,-99.99,,,0.00,194.1,rob ver 1B,2013-06-06 01:32:00,
2013-06-05 18:33:00,105.7,29.9,29.12,South,182,12.6,14.9,7,-99.99,,,0.00,190.8,rob ver 1B,2013-06-06 01:33:00,
2013-06-05 18:34:00,105.9,29.8,29.12,South,189,12.9,15.1,7,-99.99,,,0.00,188,rob ver 1B,2013-06-06 01:34:00,
2013-06-05 18:35:00,105.7,30.0,29.12,South,189,13.7,16.9,7,-99.99,,,0.00,184.9,rob ver 1B,2013-06-06 01:35:00,
2013-06-05 18:36:00,105.7,29.9,29.12,South,186,12.4,14.9,7,-99.99,,,0.00,181.2,rob ver 1B,2013-06-06 01:36:00,
2013-06-05 18:37:00,105.7,29.7,29.15,South,187,12.5,16.2,7,-99.99,,,0.00,177.7,rob ver 1B,2013-06-06 01:37:00,
2013-06-05 18:38:00,105.7,29.8,29.12,South,183,13.1,15.7,7,-99.99,,,0.00,174.8,rob ver 1B,2013-06-06 01:38:00,
2013-06-05 18:39:00,105.6,29.8,29.12,South,187,11.6,14.5,7,-99.99,,,0.00,171.3,rob ver 1B,2013-06-06 01:39:00,
2013-06-05 18:40:00,105.6,29.7,29.12,South,186,12.2,15.1,7,-99.99,,,0.00,168.1,rob ver 1B,2013-06-06 01:40:00,
2013-06-05 18:41:00,105.5,30.0,29.12,South,184,13.2,15.2,7,-99.99,,,0.00,164.6,rob ver 1B,2013-06-06 01:41:00,
2013-06-05 18:42:00,105.3,29.9,29.12,South,189,13.1,15.9,7,-99.99,,,0.00,161.3,rob ver 1B,2013-06-06 01:42:00,
2013-06-05 18:43:00,105.2,29.9,29.12,South,188,11.9,14.5,7,-99.99,,,0.00,158.7,rob ver 1B,2013-06-06 01:43:00,
2013-06-05 18:44:00,105.2,29.9,29.12,South,183,12.3,15.4,7,-99.99,,,0.00,155.3,rob ver 1B,2013-06-06 01:44:00,
2013-06-05 18:45:00,105.2,30.2,29.12,South,189,11.3,14.3,7,-99.99,,,0.00,152,rob ver 1B,2013-06-06 01:45:00,
2013-06-05 18:46:00,105.2,30.3,29.12,South,191,11.9,16.5,7,-99.99,,,0.00,148.9,rob ver 1B,2013-06-06 01:46:00,
2013-06-05 18:47:00,105.2,30.1,29.12,South,181,13.9,16.8,7,-99.99,,,0.00,145.6,rob ver 1B,2013-06-06 01:47:00,
2013-06-05 18:48:00,105.2,29.8,29.12,South,181,13.5,16.5,7,-99.99,,,0.00,142.4,rob ver 1B,2013-06-06 01:48:00,
2013-06-05 18:49:00,105.1,29.8,29.15,South,180,11.2,14.3,7,-99.99,,,0.00,139.4,rob ver 1B,2013-06-06 01:49:00,
2013-06-05 18:50:00,105.1,30.0,29.15,South,176,13.4,15.9,7,-99.99,,,0.00,136.5,rob ver 1B,2013-06-06 01:50:00,
2013-06-05 18:51:00,105.0,30.3,29.15,South,182,13.4,15.6,7,-99.99,,,0.00,133.2,rob ver 1B,2013-06-06 01:51:00,
2013-06-05 18:52:00,104.9,30.4,29.15,South,190,13.1,16.0,7,-99.99,,,0.00,129.6,rob ver 1B,2013-06-06 01:52:00,
2013-06-05 18:53:00,104.9,30.3,29.15,South,191,12.9,16.4,7,-99.99,,,0.00,126.7,rob ver 1B,2013-06-06 01:53:00,
2013-06-05 18:54:00,104.9,30.1,29.15,South,189,11.7,15.1,7,-99.99,,,0.00,124,rob ver 1B,2013-06-06 01:54:00,
2013-06-05 18:55:00,104.9,29.9,29.15,South,180,12.6,14.7,7,-99.99,,,0.00,121.1,rob ver 1B,2013-06-06 01:55:00,
2013-06-05 18:56:00,104.9,30.0,29.15,South,180,12.2,14.7,7,-99.99,,,0.00,118.1,rob ver 1B,2013-06-06 01:56:00,
2013-06-05 18:57:00,104.8,30.1,29.12,South,184,12.1,14.2,7,-99.99,,,0.00,114.9,rob ver 1B,2013-06-06 01:57:00,
2013-06-05 18:58:00,104.8,30.5,29.15,South,184,12.1,15.0,7,-99.99,,,0.00,111.6,rob ver 1B,2013-06-06 01:58:00,
2013-06-05 18:59:00,104.7,30.7,29.15,South,188,13.3,15.5,7,-99.99,,,0.00,108.8,rob ver 1B,2013-06-06 01:59:00,
2013-06-05 19:00:00,104.7,30.8,29.12,South,184,13.1,15.8,7,-99.99,,,0.00,105.7,rob ver 1B,2013-06-06 02:00:00,
2013-06-05 19:01:00,104.7,30.9,29.15,South,188,10.9,13.2,7,-99.99,,,0.00,103.1,rob ver 1B,2013-06-06 02:01:00,
2013-06-05 19:02:00,104.7,30.9,29.15,South,189,11.6,13.9,7,-99.99,,,0.00,99.8,rob ver 1B,2013-06-06 02:02:00,
2013-06-05 19:03:00,104.6,31.0,29.15,South,186,12.1,15.2,7,-99.99,,,0.00,97.2,rob ver 1B,2013-06-06 02:03:00,
2013-06-05 19:04:00,104.5,31.1,29.15,South,183,13.6,16.8,7,-99.99,,,0.00,94.6,rob ver 1B,2013-06-06 02:04:00,
2013-06-05 19:05:00,104.4,31.1,29.15,South,183,13.6,15.5,7,-99.99,,,0.00,92,rob ver 1B,2013-06-06 02:05:00,
2013-06-05 19:06:00,104.3,30.8,29.15,South,178,12.5,16.1,7,-99.99,,,0.00,88.9,rob ver 1B,2013-06-06 02:06:00,
2013-06-05 19:07:00,104.3,30.7,29.15,South,187,11.5,14.0,7,-99.99,,,0.00,86.1,rob ver 1B,2013-06-06 02:07:00,
2013-06-05 19:08:00,104.3,30.7,29.15,South,186,11.4,14.7,7,-99.99,,,0.00,83.6,rob ver 1B,2013-06-06 02:08:00,
2013-06-05 19:09:00,104.3,30.6,29.15,South,184,11.0,13.8,7,-99.99,,,0.00,80.8,rob ver 1B,2013-06-06 02:09:00,
2013-06-05 19:10:00,104.2,30.6,29.15,South,186,10.4,13.0,7,-99.99,,,0.00,78.2,rob ver 1B,2013-06-06 02:10:00,
2013-06-05 19:11:00,104.1,30.6,29.15,South,183,11.7,13.5,7,-99.99,,,0.00,75.1,rob ver 1B,2013-06-06 02:11:00,
2013-06-05 19:12:00,104.1,30.6,29.15,South,184,10.8,13.7,7,-99.99,,,0.00,72.5,rob ver 1B,2013-06-06 02:12:00,
2013-06-05 19:13:00,104.1,30.7,29.15,South,181,12.0,14.5,7,-99.99,,,0.00,69.71,rob ver 1B,2013-06-06 02:13:00,
2013-06-05 19:14:00,104.0,30.8,29.15,South,180,11.9,16.4,7,-99.99,,,0.00,66.44,rob ver 1B,2013-06-06 02:14:00,
2013-06-05 19:15:00,103.9,30.7,29.15,South,184,11.8,13.9,7,-99.99,,,0.00,63.33,rob ver 1B,2013-06-06 02:15:00,
2013-06-05 19:16:00,103.9,30.7,29.15,South,191,9.9,11.8,7,-99.99,,,0.00,60.55,rob ver 1B,2013-06-06 02:16:00,
2013-06-05 19:17:00,103.8,30.6,29.15,South,190,11.7,16.1,7,-99.99,,,0.00,58.42,rob ver 1B,2013-06-06 02:17:00,
2013-06-05 19:18:00,103.7,30.5,29.15,South,191,11.5,14.0,7,-99.99,,,0.00,55.31,rob ver 1B,2013-06-06 02:18:00,
2013-06-05 19:19:00,103.6,30.3,29.15,South,188,11.8,14.9,7,-99.99,,,0.00,52.69,rob ver 1B,2013-06-06 02:19:00,
2013-06-05 19:20:00,103.6,30.2,29.15,South,188,10.4,12.9,7,-99.99,,,0.00,50.08,rob ver 1B,2013-06-06 02:20:00,
2013-06-05 19:21:00,103.5,30.3,29.15,South,188,8.3,12.4,7,-99.99,,,0.00,47.78,rob ver 1B,2013-06-06 02:21:00,
2013-06-05 19:22:00,103.4,30.4,29.15,South,188,9.9,13.2,7,-99.99,,,0.00,45.49,rob ver 1B,2013-06-06 02:22:00,
2013-06-05 19:23:00,103.4,30.6,29.12,South,189,10.9,14.1,7,-99.99,,,0.00,42.88,rob ver 1B,2013-06-06 02:23:00,
2013-06-05 19:24:00,103.3,30.6,29.12,South,187,9.8,11.7,8,-99.99,,,0.00,40.26,rob ver 1B,2013-06-06 02:24:00,
2013-06-05 19:25:00,103.2,30.6,29.15,South,187,9.6,12.1,8,-99.99,,,0.00,37.8,rob ver 1B,2013-06-06 02:25:00,
2013-06-05 19:26:00,103.1,30.5,29.15,South,185,8.2,10.0,8,-99.99,,,0.00,35.35,rob ver 1B,2013-06-06 02:26:00,
2013-06-05 19:27:00,103.0,30.5,29.15,South,185,9.0,10.6,8,-99.99,,,0.00,33.06,rob ver 1B,2013-06-06 02:27:00,
2013-06-05 19:28:00,103.0,30.6,29.15,South,185,9.5,13.0,8,-99.99,,,0.00,30.93,rob ver 1B,2013-06-06 02:28:00,
2013-06-05 19:29:00,102.9,30.6,29.15,South,188,8.7,11.1,8,-99.99,,,0.00,28.47,rob ver 1B,2013-06-06 02:29:00,
2013-06-05 19:30:00,102.8,30.8,29.15,South,187,8.9,11.4,8,-99.99,,,0.00,26.51,rob ver 1B,2013-06-06 02:30:00,
2013-06-05 19:31:00,102.7,30.9,29.15,South,184,9.9,13.4,8,-99.99,,,0.00,24.55,rob ver 1B,2013-06-06 02:31:00,
2013-06-05 19:32:00,102.7,31.0,29.15,South,188,9.7,12.5,8,-99.99,,,0.00,22.58,rob ver 1B,2013-06-06 02:32:00,
2013-06-05 19:33:00,102.6,31.0,29.15,South,188,9.9,12.1,8,-99.99,,,0.00,20.62,rob ver 1B,2013-06-06 02:33:00,
2013-06-05 19:34:00,102.5,31.2,29.12,South,188,10.3,13.0,8,-99.99,,,0.00,18.66,rob ver 1B,2013-06-06 02:34:00,
2013-06-05 19:35:00,102.4,31.1,29.15,South,188,9.1,11.0,8,-99.99,,,0.00,17.02,rob ver 1B,2013-06-06 02:35:00,
2013-06-05 19:36:00,102.3,31.2,29.15,South,191,8.9,11.6,8,-99.99,,,0.00,15.38,rob ver 1B,2013-06-06 02:36:00,
2013-06-05 19:37:00,102.2,31.3,29.12,SSW,192,9.8,12.5,8,-99.99,,,0.00,13.58,rob ver 1B,2013-06-06 02:37:00,
2013-06-05 19:38:00,102.1,31.3,29.15,South,191,9.5,11.7,8,-99.99,,,0.00,12.11,rob ver 1B,2013-06-06 02:38:00,
2013-06-05 19:39:00,102.0,31.4,29.15,South,190,9.7,11.8,8,-99.99,,,0.00,10.47,rob ver 1B,2013-06-06 02:39:00,
2013-06-05 19:40:00,101.9,31.4,29.15,South,190,10.1,13.3,8,-99.99,,,0.00,9.16,rob ver 1B,2013-06-06 02:40:00,
2013-06-05 19:41:00,101.9,31.4,29.15,South,188,10.0,13.0,8,-99.99,,,0.00,7.69,rob ver 1B,2013-06-06 02:41:00,
2013-06-05 19:42:00,101.8,31.4,29.15,South,190,9.1,10.9,8,-99.99,,,0.00,6.546,rob ver 1B,2013-06-06 02:42:00,
2013-06-05 19:43:00,101.7,31.4,29.15,South,189,8.4,10.3,8,-99.99,,,0.00,5.892,rob ver 1B,2013-06-06 02:43:00,
2013-06-05 19:44:00,101.5,31.4,29.15,South,190,9.0,11.5,8,-99.99,,,0.00,5.237,rob ver 1B,2013-06-06 02:44:00,
2013-06-05 19:45:00,101.5,31.5,29.12,SSW,192,9.9,12.3,8,-99.99,,,0.00,4.582,rob ver 1B,2013-06-06 02:45:00,
2013-06-05 19:46:00,101.4,31.5,29.12,SSW,192,10.0,12.5,8,-99.99,,,0.00,3.928,rob ver 1B,2013-06-06 02:46:00,
2013-06-05 19:47:00,101.3,31.5,29.12,SSW,193,9.9,11.9,8,-99.99,,,0.00,3.601,rob ver 1B,2013-06-06 02:47:00,
2013-06-05 19:48:00,101.2,31.5,29.12,SSW,192,9.6,12.3,8,-99.99,,,0.00,2.946,rob ver 1B,2013-06-06 02:48:00,
2013-06-05 19:49:00,101.2,31.5,29.12,SSW,193,9.6,11.5,8,-99.99,,,0.00,2.946,rob ver 1B,2013-06-06 02:49:00,
2013-06-05 19:50:00,101.1,31.5,29.12,SSW,192,9.9,13.3,8,-99.99,,,0.00,2.619,rob ver 1B,2013-06-06 02:50:00,
2013-06-05 19:51:00,101.0,31.6,29.12,SSW,192,9.8,12.7,8,-99.99,,,0.00,2.455,rob ver 1B,2013-06-06 02:51:00,
2013-06-05 19:52:00,101.0,31.5,29.12,SSW,194,10.1,11.9,8,-99.99,,,0.00,1.964,rob ver 1B,2013-06-06 02:52:00,
2013-06-05 19:53:00,100.9,31.6,29.15,South,190,9.2,11.3,8,-99.99,,,0.00,1.964,rob ver 1B,2013-06-06 02:53:00,
2013-06-05 19:54:00,100.9,31.6,29.15,SSW,193,9.4,11.1,8,-99.99,,,0.00,1.473,rob ver 1B,2013-06-06 02:54:00,
2013-06-05 19:55:00,100.8,31.6,29.15,SSW,192,9.6,12.1,8,-99.99,,,0.00,1.309,rob ver 1B,2013-06-06 02:55:00,
2013-06-05 19:56:00,100.7,31.6,29.12,South,191,9.1,11.5,8,-99.99,,,0.00,1.146,rob ver 1B,2013-06-06 02:56:00,
2013-06-05 19:57:00,100.7,31.8,29.12,South,190,9.4,11.1,9,-99.99,,,0.00,.982,rob ver 1B,2013-06-06 02:57:00,
2013-06-05 19:58:00,100.6,31.8,29.12,South,191,8.2,10.6,9,-99.99,,,0.00,.655,rob ver 1B,2013-06-06 02:58:00,
2013-06-05 19:59:00,100.5,31.9,29.12,South,188,8.0,10.2,9,-99.99,,,0.00,.655,rob ver 1B,2013-06-06 02:59:00,
2013-06-05 20:00:00,100.5,32.0,29.15,South,189,9.0,10.9,9,-99.99,,,0.00,.655,rob ver 1B,2013-06-06 03:00:00,
2013-06-05 20:01:00,100.5,32.1,29.15,South,189,8.4,9.9,9,-99.99,,,0.00,.327,rob ver 1B,2013-06-06 03:01:00,
2013-06-05 20:02:00,100.5,32.1,29.15,South,188,8.5,10.9,9,-99.99,,,0.00,.327,rob ver 1B,2013-06-06 03:02:00,
2013-06-05 20:03:00,100.4,32.1,29.15,South,189,7.8,9.6,9,-99.99,,,0.00,.327,rob ver 1B,2013-06-06 03:03:00,
2013-06-05 20:04:00,100.3,32.0,29.15,South,190,7.1,9.4,9,-99.99,,,0.00,0,rob ver 1B,2013-06-06 03:04:00,
2013-06-05 20:05:00,100.2,32.0,29.15,South,188,7.4,9.4,9,-99.99,,,0.00,0,rob ver 1B,2013-06-06 03:05:00,
2013-06-05 20:06:00,100.1,31.9,29.15,South,188,6.9,8.5,9,-99.99,,,0.00,0,rob ver 1B,2013-06-06 03:06:00,
2013-06-05 20:07:00,100.0,31.8,29.15,South,187,6.3,7.9,9,-99.99,,,0.00,0,rob ver 1B,2013-06-06 03:07:00,
2013-06-05 20:08:00,99.9,31.8,29.15,South,187,6.4,8.3,9,-99.99,,,0.00,0,rob ver 1B,2013-06-06 03:08:00,
2013-06-05 20:09:00,99.8,31.8,29.15,South,187,6.5,8.5,9,-99.99,,,0.00,0,rob ver 1B,2013-06-06 03:09:00,
2013-06-05 20:10:00,99.8,31.7,29.15,South,190,6.4,7.6,9,-99.99,,,0.00,0,rob ver 1B,2013-06-06 03:10:00,
2013-06-05 20:11:00,99.7,31.7,29.15,South,190,6.1,7.5,9,-99.99,,,0.00,0,rob ver 1B,2013-06-06 03:11:00,
2013-06-05 20:12:00,99.6,31.6,29.15,South,190,5.8,7.4,9,-99.99,,,0.00,0,rob ver 1B,2013-06-06 03:12:00,
2013-06-05 20:13:00,99.5,31.6,29.15,South,190,5.8,7.0,9,-99.99,,,0.00,0,rob ver 1B,2013-06-06 03:13:00,
2013-06-05 20:14:00,99.4,31.6,29.15,South,190,6.2,7.3,9,-99.99,,,0.00,0,rob ver 1B,2013-06-06 03:14:00,
2013-06-05 20:15:00,99.4,31.6,29.15,South,190,6.2,7.6,9,-99.99,,,0.00,0,rob ver 1B,2013-06-06 03:15:00,
2013-06-05 20:16:00,99.4,31.5,29.15,South,190,5.5,6.8,9,-99.99,,,0.00,0,rob ver 1B,2013-06-06 03:16:00,
2013-06-05 20:17:00,99.2,31.4,29.15,South,188,5.0,6.6,9,-99.99,,,0.00,0,rob ver 1B,2013-06-06 03:17:00,
2013-06-05 20:18:00,99.1,31.4,29.15,South,188,5.5,6.7,9,-99.99,,,0.00,0,rob ver 1B,2013-06-06 03:18:00,
2013-06-05 20:19:00,99.0,31.3,29.15,South,191,5.5,6.9,9,-99.99,,,0.00,0,rob ver 1B,2013-06-06 03:19:00,
2013-06-05 20:20:00,99.0,31.2,29.15,South,189,5.7,7.1,9,-99.99,,,0.00,0,rob ver 1B,2013-06-06 03:20:00,
2013-06-05 20:21:00,98.9,31.1,29.15,South,191,5.4,6.4,9,-99.99,,,0.00,0,rob ver 1B,2013-06-06 03:21:00,
2013-06-05 20:22:00,98.8,31.2,29.15,South,191,5.6,6.5,9,-99.99,,,0.00,0,rob ver 1B,2013-06-06 03:22:00,
2013-06-05 20:23:00,98.7,31.3,29.15,SSW,192,5.8,6.6,9,-99.99,,,0.00,0,rob ver 1B,2013-06-06 03:23:00,
2013-06-05 20:24:00,98.6,31.4,29.15,South,191,5.7,6.5,9,-99.99,,,0.00,0,rob ver 1B,2013-06-06 03:24:00,
2013-06-05 20:25:00,98.5,31.4,29.15,South,189,5.5,6.6,9,-99.99,,,0.00,0,rob ver 1B,2013-06-06 03:25:00,
2013-06-05 20:26:00,98.5,31.4,29.15,South,188,5.3,6.7,9,-99.99,,,0.00,0,rob ver 1B,2013-06-06 03:26:00,
2013-06-05 20:27:00,98.3,31.4,29.15,South,187,5.4,6.7,9,-99.99,,,0.00,0,rob ver 1B,2013-06-06 03:27:00,
2013-06-05 20:28:00,98.2,31.4,29.15,South,185,5.5,6.5,9,-99.99,,,0.00,0,rob ver 1B,2013-06-06 03:28:00,
2013-06-05 20:29:00,98.1,31.3,29.15,South,186,5.4,6.6,9,-99.99,,,0.00,0,rob ver 1B,2013-06-06 03:29:00,
2013-06-05 20:30:00,97.9,31.1,29.15,South,186,5.4,6.4,9,-99.99,,,0.00,0,rob ver 1B,2013-06-06 03:30:00,
2013-06-05 20:31:00,97.8,31.1,29.15,South,184,5.4,6.4,9,-99.99,,,0.00,0,rob ver 1B,2013-06-06 03:31:00,
2013-06-05 20:32:00,97.6,31.0,29.15,South,182,5.1,5.8,9,-99.99,,,0.00,0,rob ver 1B,2013-06-06 03:32:00,
2013-06-05 20:33:00,97.4,30.9,29.15,South,179,5.4,6.1,9,-99.99,,,0.00,0,rob ver 1B,2013-06-06 03:33:00,
2013-06-05 20:34:00,97.2,30.9,29.15,South,179,5.4,6.0,9,-99.99,,,0.00,0,rob ver 1B,2013-06-06 03:34:00,
2013-06-05 20:35:00,97.1,30.9,29.15,South,179,5.6,6.3,9,-99.99,,,0.00,0,rob ver 1B,2013-06-06 03:35:00,
2013-06-05 20:36:00,97.1,30.9,29.15,South,178,5.5,6.4,9,-99.99,,,0.00,0,rob ver 1B,2013-06-06 03:36:00,
2013-06-05 20:37:00,96.9,31.0,29.15,South,180,5.6,6.8,9,-99.99,,,0.00,0,rob ver 1B,2013-06-06 03:37:00,
2013-06-05 20:38:00,96.8,31.0,29.15,South,183,5.4,6.7,9,-99.99,,,0.00,0,rob ver 1B,2013-06-06 03:38:00,
2013-06-05 20:39:00,96.7,31.1,29.15,South,183,5.4,6.2,9,-99.99,,,0.00,0,rob ver 1B,2013-06-06 03:39:00,
2013-06-05 20:40:00,96.6,31.1,29.15,South,182,5.6,6.6,10,-99.99,,,0.00,0,rob ver 1B,2013-06-06 03:40:00,
2013-06-05 20:41:00,96.5,31.2,29.15,South,184,5.6,6.8,10,-99.99,,,0.00,0,rob ver 1B,2013-06-06 03:41:00,
2013-06-05 20:42:00,96.5,31.3,29.15,South,184,5.6,6.7,10,-99.99,,,0.00,0,rob ver 1B,2013-06-06 03:42:00,
2013-06-05 20:43:00,96.4,31.4,29.15,South,184,5.8,6.7,10,-99.99,,,0.00,0,rob ver 1B,2013-06-06 03:43:00,
2013-06-05 20:44:00,96.4,31.5,29.15,South,186,5.9,7.3,10,-99.99,,,0.00,0,rob ver 1B,2013-06-06 03:44:00,
2013-06-05 20:45:00,96.4,31.7,29.15,South,188,6.2,7.5,10,-99.99,,,0.00,0,rob ver 1B,2013-06-06 03:45:00,
2013-06-05 20:46:00,96.5,31.9,29.15,South,188,6.4,7.6,10,-99.99,,,0.00,0,rob ver 1B,2013-06-06 03:46:00,
2013-06-05 20:47:00,96.5,32.0,29.15,South,190,6.4,8.0,10,-99.99,,,0.00,0,rob ver 1B,2013-06-06 03:47:00,
2013-06-05 20:48:00,96.6,32.0,29.15,SSW,192,6.6,8.3,10,-99.99,,,0.00,0,rob ver 1B,2013-06-06 03:48:00,
2013-06-05 20:49:00,96.6,32.1,29.15,SSW,195,6.6,8.0,10,-99.99,,,0.00,0,rob ver 1B,2013-06-06 03:49:00,
2013-06-05 20:50:00,96.5,32.1,29.15,SSW,195,6.6,7.9,10,-99.99,,,0.00,0,rob ver 1B,2013-06-06 03:50:00,
2013-06-05 20:51:00,96.5,32.3,29.15,SSW,195,7.4,9.4,10,-99.99,,,0.00,0,rob ver 1B,2013-06-06 03:51:00,
2013-06-05 20:52:00,96.5,32.4,29.15,SSW,197,8.0,9.5,10,-99.99,,,0.00,0,rob ver 1B,2013-06-06 03:52:00,
2013-06-05 20:53:00,96.6,32.5,29.15,SSW,197,7.8,9.1,10,-99.99,,,0.00,0,rob ver 1B,2013-06-06 03:53:00,
2013-06-05 20:54:00,96.6,32.5,29.15,SSW,198,7.8,9.2,10,-99.99,,,0.00,0,rob ver 1B,2013-06-06 03:54:00,
2013-06-05 20:55:00,96.5,32.5,29.15,SSW,198,7.7,9.2,10,-99.99,,,0.00,0,rob ver 1B,2013-06-06 03:55:00,
2013-06-05 20:56:00,96.5,32.5,29.15,SSW,200,7.6,8.8,10,-99.99,,,0.00,0,rob ver 1B,2013-06-06 03:56:00,
2013-06-05 20:57:00,96.4,32.5,29.15,SSW,201,7.6,8.9,10,-99.99,,,0.00,0,rob ver 1B,2013-06-06 03:57:00,
2013-06-05 20:58:00,96.3,32.5,29.15,SSW,204,7.5,8.5,10,-99.99,,,0.00,0,rob ver 1B,2013-06-06 03:58:00,
2013-06-05 20:59:00,96.3,32.5,29.15,SSW,202,7.6,9.3,10,-99.99,,,0.00,0,rob ver 1B,2013-06-06 03:59:00,
2013-06-05 21:00:00,96.2,32.6,29.15,SSW,202,7.6,9.4,10,-99.99,,,0.00,0,rob ver 1B,2013-06-06 04:00:00,
2013-06-05 21:01:00,96.3,32.6,29.15,SSW,200,8.2,9.6,10,-99.99,,,0.00,0,rob ver 1B,2013-06-06 04:01:00,
2013-06-05 21:02:00,96.3,32.6,29.15,SSW,199,8.4,9.7,10,-99.99,,,0.00,0,rob ver 1B,2013-06-06 04:02:00,
2013-06-05 21:03:00,96.4,32.6,29.15,SSW,197,8.2,9.4,10,-99.99,,,0.00,0,rob ver 1B,2013-06-06 04:03:00,
2013-06-05 21:04:00,96.4,32.7,29.15,SSW,197,8.4,9.8,10,-99.99,,,0.00,0,rob ver 1B,2013-06-06 04:04:00,
2013-06-05 21:05:00,96.5,32.7,29.15,SSW,197,8.0,9.8,10,-99.99,,,0.00,0,rob ver 1B,2013-06-06 04:05:00,
2013-06-05 21:06:00,96.5,32.7,29.15,SSW,198,8.1,9.7,10,-99.99,,,0.00,0,rob ver 1B,2013-06-06 04:06:00,
2013-06-05 21:07:00,96.5,32.7,29.15,SSW,197,8.4,9.6,10,-99.99,,,0.00,0,rob ver 1B,2013-06-06 04:07:00,
2013-06-05 21:08:00,96.5,32.7,29.15,SSW,196,8.1,9.8,10,-99.99,,,0.00,0,rob ver 1B,2013-06-06 04:08:00,
2013-06-05 21:09:00,96.4,32.7,29.15,SSW,198,7.8,9.4,10,-99.99,,,0.00,0,rob ver 1B,2013-06-06 04:09:00,
2013-06-05 21:10:00,96.4,32.7,29.15,SSW,197,8.0,9.7,10,-99.99,,,0.00,0,rob ver 1B,2013-06-06 04:10:00,
2013-06-05 21:11:00,96.5,32.7,29.15,SSW,197,8.7,10.0,10,-99.99,,,0.00,0,rob ver 1B,2013-06-06 04:11:00,
2013-06-05 21:12:00,96.5,32.7,29.15,SSW,197,8.4,9.8,10,-99.99,,,0.00,0,rob ver 1B,2013-06-06 04:12:00,
2013-06-05 21:13:00,96.6,32.7,29.15,SSW,197,8.5,10.1,10,-99.99,,,0.00,0,rob ver 1B,2013-06-06 04:13:00,
2013-06-05 21:14:00,96.6,32.6,29.15,SSW,195,8.9,10.4,10,-99.99,,,0.00,0,rob ver 1B,2013-06-06 04:14:00,
2013-06-05 21:15:00,96.6,32.6,29.15,SSW,196,8.6,10.2,10,-99.99,,,0.00,0,rob ver 1B,2013-06-06 04:15:00,
2013-06-05 21:16:00,96.7,32.4,29.15,SSW,196,9.0,10.8,10,-99.99,,,0.00,0,rob ver 1B,2013-06-06 04:16:00,
2013-06-05 21:17:00,96.8,32.3,29.18,SSW,196,8.8,10.6,10,-99.99,,,0.00,0,rob ver 1B,2013-06-06 04:17:00,
2013-06-05 21:18:00,96.7,32.3,29.18,SSW,196,8.7,10.6,10,-99.99,,,0.00,0,rob ver 1B,2013-06-06 04:18:00,
2013-06-05 21:19:00,96.7,32.1,29.18,SSW,196,8.4,10.0,10,-99.99,,,0.00,0,rob ver 1B,2013-06-06 04:19:00,
2013-06-05 21:20:00,96.7,32.1,29.18,SSW,194,8.8,10.9,10,-99.99,,,0.00,0,rob ver 1B,2013-06-06 04:20:00,
2013-06-05 21:21:00,96.8,32.0,29.18,SSW,193,8.6,10.2,10,-99.99,,,0.00,0,rob ver 1B,2013-06-06 04:21:00,
2013-06-05 21:22:00,96.8,32.0,29.18,SSW,192,8.5,10.5,10,-99.99,,,0.00,0,rob ver 1B,2013-06-06 04:22:00,
2013-06-05 21:23:00,96.8,32.1,29.15,SSW,192,8.9,11.0,10,-99.99,,,0.00,0,rob ver 1B,2013-06-06 04:23:00,
2013-06-05 21:24:00,96.7,32.0,29.18,SSW,192,8.8,11.1,10,-99.99,,,0.00,0,rob ver 1B,2013-06-06 04:24:00,
2013-06-05 21:25:00,96.7,31.9,29.18,SSW,192,8.9,11.3,10,-99.99,,,0.00,0,rob ver 1B,2013-06-06 04:25:00,
2013-06-05 21:26:00,96.7,31.8,29.18,South,191,9.2,10.8,10,-99.99,,,0.00,0,rob ver 1B,2013-06-06 04:26:00,
2013-06-05 21:27:00,96.7,31.8,29.18,South,191,9.0,10.8,10,-99.99,,,0.00,0,rob ver 1B,2013-06-06 04:27:00,
2013-06-05 21:28:00,96.7,31.8,29.18,South,191,8.4,10.8,10,-99.99,,,0.00,0,rob ver 1B,2013-06-06 04:28:00,
2013-06-05 21:29:00,96.7,31.7,29.18,SSW,193,9.2,11.3,10,-99.99,,,0.00,0,rob ver 1B,2013-06-06 04:29:00,
2013-06-05 21:30:00,96.7,31.6,29.18,SSW,193,9.5,11.7,10,-99.99,,,0.00,0,rob ver 1B,2013-06-06 04:30:00,
2013-06-05 21:31:00,96.6,31.6,29.18,SSW,195,9.0,10.6,10,-99.99,,,0.00,0,rob ver 1B,2013-06-06 04:31:00,
2013-06-05 21:32:00,96.5,31.6,29.18,SSW,195,9.8,11.7,10,-99.99,,,0.00,0,rob ver 1B,2013-06-06 04:32:00,
2013-06-05 21:33:00,96.5,31.6,29.18,SSW,195,10.4,12.8,10,-99.99,,,0.00,0,rob ver 1B,2013-06-06 04:33:00,
2013-06-05 21:34:00,96.5,31.7,29.18,SSW,195,10.2,12.3,10,-99.99,,,0.00,0,rob ver 1B,2013-06-06 04:34:00,
2013-06-05 21:35:00,96.4,31.7,29.18,SSW,193,8.8,10.6,10,-99.99,,,0.00,0,rob ver 1B,2013-06-06 04:35:00,
2013-06-05 21:36:00,96.4,31.8,29.18,South,190,8.7,10.6,10,-99.99,,,0.00,0,rob ver 1B,2013-06-06 04:36:00,
2013-06-05 21:37:00,96.3,31.9,29.18,South,187,8.1,9.8,10,-99.99,,,0.00,0,rob ver 1B,2013-06-06 04:37:00,
2013-06-05 21:38:00,96.1,31.9,29.18,South,187,8.1,9.9,10,-99.99,,,0.00,0,rob ver 1B,2013-06-06 04:38:00,
2013-06-05 21:39:00,95.8,31.9,29.18,South,188,7.7,9.6,10,-99.99,,,0.00,0,rob ver 1B,2013-06-06 04:39:00,
2013-06-05 21:40:00,95.5,31.9,29.18,South,184,8.3,9.9,10,-99.99,,,0.00,0,rob ver 1B,2013-06-06 04:40:00,
2013-06-05 21:41:00,95.2,31.9,29.18,South,183,8.3,9.8,10,-99.99,,,0.00,0,rob ver 1B,2013-06-06 04:41:00,
2013-06-05 21:42:00,94.9,31.9,29.18,South,181,8.4,10.1,10,-99.99,,,0.00,0,rob ver 1B,2013-06-06 04:42:00,
2013-06-05 21:43:00,94.7,32.1,29.18,South,179,9.4,11.0,11,-99.99,,,0.00,0,rob ver 1B,2013-06-06 04:43:00,
2013-06-05 21:44:00,94.6,32.4,29.18,South,179,9.0,10.5,11,-99.99,,,0.00,0,rob ver 1B,2013-06-06 04:44:00,
2013-06-05 21:45:00,94.4,32.7,29.18,South,178,8.6,10.9,11,-99.99,,,0.00,0,rob ver 1B,2013-06-06 04:45:00,
2013-06-05 21:46:00,94.3,33.4,29.18,South,177,9.9,12.3,11,-99.99,,,0.00,0,rob ver 1B,2013-06-06 04:46:00,
2013-06-05 21:47:00,94.3,33.8,29.18,South,178,9.4,11.0,12,-99.99,,,0.00,0,rob ver 1B,2013-06-06 04:47:00,
2013-06-05 21:48:00,94.3,33.9,29.18,South,179,9.4,11.1,12,-99.99,,,0.00,0,rob ver 1B,2013-06-06 04:48:00,
2013-06-05 21:49:00,94.2,34.1,29.18,South,180,9.7,12.0,12,-99.99,,,0.00,0,rob ver 1B,2013-06-06 04:49:00,
2013-06-05 21:50:00,94.1,34.2,29.18,South,183,9.7,11.7,12,-99.99,,,0.00,0,rob ver 1B,2013-06-06 04:50:00,
2013-06-05 21:51:00,94.0,34.4,29.18,South,182,9.4,11.7,12,-99.99,,,0.00,0,rob ver 1B,2013-06-06 04:51:00,
2013-06-05 21:52:00,93.8,34.5,29.18,South,181,9.3,12.7,12,-99.99,,,0.00,0,rob ver 1B,2013-06-06 04:52:00,
2013-06-05 21:53:00,93.8,35.2,29.18,South,180,11.4,13.6,12,-99.99,,,0.00,0,rob ver 1B,2013-06-06 04:53:00,
2013-06-05 21:54:00,94.0,35.4,29.18,South,183,11.6,15.8,12,-99.99,,,0.00,0,rob ver 1B,2013-06-06 04:54:00,
2013-06-05 21:55:00,94.0,35.4,29.18,South,185,10.6,12.9,12,-99.99,,,0.00,0,rob ver 1B,2013-06-06 04:55:00,
2013-06-05 21:56:00,93.9,35.4,29.18,South,185,10.0,11.8,12,-99.99,,,0.00,0,rob ver 1B,2013-06-06 04:56:00,
2013-06-05 21:57:00,93.8,35.5,29.18,South,185,9.7,13.0,13,-99.99,,,0.00,0,rob ver 1B,2013-06-06 04:57:00,
2013-06-05 21:58:00,93.6,35.5,29.18,South,187,9.5,11.8,13,-99.99,,,0.00,0,rob ver 1B,2013-06-06 04:58:00,
2013-06-05 21:59:00,93.5,35.6,29.18,South,189,8.3,9.6,13,-99.99,,,0.00,0,rob ver 1B,2013-06-06 04:59:00,
2013-06-05 22:00:00,93.3,35.8,29.18,South,189,8.5,11.0,13,-99.99,,,0.00,0,rob ver 1B,2013-06-06 05:00:00,
2013-06-05 22:01:00,93.1,35.9,29.18,South,189,8.3,10.7,13,-99.99,,,0.00,0,rob ver 1B,2013-06-06 05:01:00,
2013-06-05 22:02:00,93.1,35.9,29.18,South,190,9.2,11.7,13,-99.99,,,0.00,0,rob ver 1B,2013-06-06 05:02:00,
2013-06-05 22:03:00,93.1,35.9,29.18,SSW,192,9.9,13.5,13,-99.99,,,0.00,0,rob ver 1B,2013-06-06 05:03:00,
2013-06-05 22:04:00,93.2,36.0,29.18,SSW,196,11.5,13.8,13,-99.99,,,0.00,0,rob ver 1B,2013-06-06 05:04:00,
2013-06-05 22:05:00,93.3,36.0,29.18,SSW,202,11.9,15.2,13,-99.99,,,0.00,0,rob ver 1B,2013-06-06 05:05:00,
2013-06-05 22:06:00,93.2,36.3,29.18,SSW,210,12.1,14.5,13,-99.99,,,0.00,0,rob ver 1B,2013-06-06 05:06:00,
2013-06-05 22:07:00,92.9,37.0,29.18,SW,215,12.5,15.1,14,-99.99,,,0.00,0,rob ver 1B,2013-06-06 05:07:00,
2013-06-05 22:08:00,92.5,38.9,29.18,SSW,211,13.5,16.9,15,-99.99,,,0.00,0,rob ver 1B,2013-06-06 05:08:00,
2013-06-05 22:09:00,92.0,39.6,29.18,SSW,210,14.3,18.5,16,-99.99,,,0.00,0,rob ver 1B,2013-06-06 05:09:00,
2013-06-05 22:10:00,91.7,39.8,29.18,SSW,206,13.5,16.8,16,-99.99,,,0.00,0,rob ver 1B,2013-06-06 05:10:00,
2013-06-05 22:11:00,91.5,39.7,29.18,SSW,208,14.2,16.6,16,-99.99,,,0.00,0,rob ver 1B,2013-06-06 05:11:00,
2013-06-05 22:12:00,91.5,39.4,29.18,SSW,206,13.6,17.5,16,-99.99,,,0.00,0,rob ver 1B,2013-06-06 05:12:00,
2013-06-05 22:13:00,91.5,39.2,29.18,SSW,210,15.0,18.7,15,-99.99,,,0.00,0,rob ver 1B,2013-06-06 05:13:00,
2013-06-05 22:14:00,91.5,38.9,29.18,SSW,212,14.8,17.9,15,-99.99,,,0.00,0,rob ver 1B,2013-06-06 05:14:00,
2013-06-05 22:15:00,91.6,38.4,29.18,SSW,209,15.6,19.6,15,-99.99,,,0.00,0,rob ver 1B,2013-06-06 05:15:00,
2013-06-05 22:16:00,91.7,38.2,29.18,SSW,203,14.0,17.7,15,-99.99,,,0.00,0,rob ver 1B,2013-06-06 05:16:00,
2013-06-05 22:17:00,91.8,38.0,29.18,SSW,198,14.7,19.1,15,-99.99,,,0.00,0,rob ver 1B,2013-06-06 05:17:00,
2013-06-05 22:18:00,91.9,37.9,29.18,SSW,197,16.2,19.1,15,-99.99,,,0.00,0,rob ver 1B,2013-06-06 05:18:00,
2013-06-05 22:19:00,92.0,37.9,29.18,SSW,206,15.4,18.1,15,-99.99,,,0.00,0,rob ver 1B,2013-06-06 05:19:00,
2013-06-05 22:20:00,91.9,38.0,29.18,SSW,207,15.3,18.7,15,-99.99,,,0.00,0,rob ver 1B,2013-06-06 05:20:00,
2013-06-05 22:21:00,91.8,37.9,29.18,SSW,207,14.7,18.0,15,-99.99,,,0.00,0,rob ver 1B,2013-06-06 05:21:00,
2013-06-05 22:22:00,91.8,38.0,29.18,SSW,202,14.6,18.5,15,-99.99,,,0.00,0,rob ver 1B,2013-06-06 05:22:00,
2013-06-05 22:23:00,91.8,38.1,29.18,SSW,197,13.4,16.2,15,-99.99,,,0.00,0,rob ver 1B,2013-06-06 05:23:00,
2013-06-05 22:24:00,91.9,38.2,29.18,SSW,194,13.0,16.3,15,-99.99,,,0.00,0,rob ver 1B,2013-06-06 05:24:00,
2013-06-05 22:25:00,92.0,38.3,29.18,SSW,196,13.7,16.6,15,-99.99,,,0.00,0,rob ver 1B,2013-06-06 05:25:00,
2013-06-05 22:26:00,92.0,38.3,29.18,SSW,202,13.9,16.3,15,-99.99,,,0.00,0,rob ver 1B,2013-06-06 05:26:00,
2013-06-05 22:27:00,92.0,38.3,29.18,SSW,200,12.6,15.7,15,-99.99,,,0.00,0,rob ver 1B,2013-06-06 05:27:00,
2013-06-05 22:28:00,91.9,38.8,29.18,SSW,198,14.1,18.1,15,-99.99,,,0.00,0,rob ver 1B,2013-06-06 05:28:00,
2013-06-05 22:29:00,91.8,38.9,29.18,SSW,194,11.7,15.7,16,-99.99,,,0.00,0,rob ver 1B,2013-06-06 05:29:00,
2013-06-05 22:30:00,91.8,39.3,29.18,South,190,11.6,14.3,15,-99.99,,,0.00,0,rob ver 1B,2013-06-06 05:30:00,
2013-06-05 22:31:00,91.8,39.4,29.18,South,191,10.3,12.4,16,-99.99,,,0.00,0,rob ver 1B,2013-06-06 05:31:00,
2013-06-05 22:32:00,91.8,39.8,29.18,SSW,193,12.6,15.4,16,-99.99,,,0.00,0,rob ver 1B,2013-06-06 05:32:00,
2013-06-05 22:33:00,91.8,39.8,29.18,SSW,196,11.8,14.9,16,-99.99,,,0.00,0,rob ver 1B,2013-06-06 05:33:00,
2013-06-05 22:34:00,91.7,39.9,29.18,SSW,195,11.1,14.5,16,-99.99,,,0.00,0,rob ver 1B,2013-06-06 05:34:00,
2013-06-05 22:35:00,91.6,40.1,29.18,SSW,193,11.7,16.9,16,-99.99,,,0.00,0,rob ver 1B,2013-06-06 05:35:00,
2013-06-05 22:36:00,91.7,40.1,29.18,South,191,10.7,13.4,16,-99.99,,,0.00,0,rob ver 1B,2013-06-06 05:36:00,
2013-06-05 22:37:00,91.6,40.1,29.18,SSW,193,11.5,14.0,16,-99.99,,,0.00,0,rob ver 1B,2013-06-06 05:37:00,
2013-06-05 22:38:00,91.6,40.1,29.18,SSW,194,11.6,14.0,16,-99.99,,,0.00,0,rob ver 1B,2013-06-06 05:38:00,
2013-06-05 22:39:00,91.6,40.0,29.18,SSW,192,11.2,14.1,16,-99.99,,,0.00,0,rob ver 1B,2013-06-06 05:39:00,
2013-06-05 22:40:00,91.5,39.9,29.18,SSW,193,10.3,13.1,16,-99.99,,,0.00,0,rob ver 1B,2013-06-06 05:40:00,
2013-06-05 22:41:00,91.5,39.9,29.18,South,190,10.0,13.0,16,-99.99,,,0.00,0,rob ver 1B,2013-06-06 05:41:00,
2013-06-05 22:42:00,91.4,39.9,29.18,SSW,192,10.9,13.2,16,-99.99,,,0.00,0,rob ver 1B,2013-06-06 05:42:00,
2013-06-05 22:43:00,91.3,39.9,29.18,SSW,195,10.7,14.1,16,-99.99,,,0.00,0,rob ver 1B,2013-06-06 05:43:00,
2013-06-05 22:44:00,91.3,39.9,29.18,SSW,196,11.5,14.9,16,-99.99,,,0.00,0,rob ver 1B,2013-06-06 05:44:00,
2013-06-05 22:45:00,91.2,40.0,29.18,SSW,195,10.8,13.2,16,-99.99,,,0.00,0,rob ver 1B,2013-06-06 05:45:00,
2013-06-05 22:46:00,91.2,40.1,29.18,SSW,195,12.9,16.4,16,-99.99,,,0.00,0,rob ver 1B,2013-06-06 05:46:00,
2013-06-05 22:47:00,91.2,40.2,29.18,SSW,199,14.1,17.0,16,-99.99,,,0.00,0,rob ver 1B,2013-06-06 05:47:00,
2013-06-05 22:48:00,91.2,40.2,29.18,SSW,199,11.3,13.8,16,-99.99,,,0.00,0,rob ver 1B,2013-06-06 05:48:00,
2013-06-05 22:49:00,91.0,40.3,29.18,SSW,198,11.0,12.8,17,-99.99,,,0.00,0,rob ver 1B,2013-06-06 05:49:00,
2013-06-05 22:50:00,90.9,40.3,29.18,SSW,198,9.7,12.1,17,-99.99,,,0.00,0,rob ver 1B,2013-06-06 05:50:00,
2013-06-05 22:51:00,90.7,40.3,29.21,SSW,197,9.3,11.5,17,-99.99,,,0.00,0,rob ver 1B,2013-06-06 05:51:00,
2013-06-05 22:52:00,90.6,40.3,29.21,SSW,199,8.8,10.5,17,-99.99,,,0.00,0,rob ver 1B,2013-06-06 05:52:00,
2013-06-05 22:53:00,90.4,40.4,29.21,SSW,198,9.4,12.4,17,-99.99,,,0.00,0,rob ver 1B,2013-06-06 05:53:00,
2013-06-05 22:54:00,90.4,40.5,29.18,SSW,195,10.5,13.0,17,-99.99,,,0.00,0,rob ver 1B,2013-06-06 05:54:00,
2013-06-05 22:55:00,90.2,40.5,29.18,SSW,196,10.0,12.8,17,-99.99,,,0.00,0,rob ver 1B,2013-06-06 05:55:00,
2013-06-05 22:56:00,90.2,40.5,29.18,SSW,195,9.6,12.3,17,-99.99,,,0.00,0,rob ver 1B,2013-06-06 05:56:00,
2013-06-05 22:57:00,90.1,40.5,29.18,SSW,197,11.0,13.9,17,-99.99,,,0.00,0,rob ver 1B,2013-06-06 05:57:00,
2013-06-05 22:58:00,90.1,40.4,29.21,SSW,197,8.8,11.1,17,-99.99,,,0.00,0,rob ver 1B,2013-06-06 05:58:00,
2013-06-05 22:59:00,90.0,40.3,29.21,SSW,194,8.7,11.3,17,-99.99,,,0.00,0,rob ver 1B,2013-06-06 05:59:00,
2013-06-05 23:00:00,90.0,40.3,29.21,SSW,192,10.3,13.8,17,-99.99,,,0.00,0,rob ver 1B,2013-06-06 06:00:00,
2013-06-05 23:01:00,90.1,40.2,29.21,SSW,194,8.9,11.6,17,-99.99,,,0.00,0,rob ver 1B,2013-06-06 06:01:00,
2013-06-05 23:02:00,90.0,40.1,29.21,SSW,192,9.4,11.4,17,-99.99,,,0.00,0,rob ver 1B,2013-06-06 06:02:00,
2013-06-05 23:03:00,90.0,40.0,29.21,SSW,195,8.8,11.2,17,-99.99,,,0.00,0,rob ver 1B,2013-06-06 06:03:00,
2013-06-05 23:04:00,90.0,39.9,29.21,SSW,196,9.9,12.8,17,-99.99,,,0.00,0,rob ver 1B,2013-06-06 06:04:00,
2013-06-05 23:05:00,90.0,39.9,29.21,SSW,197,9.8,11.4,17,-99.99,,,0.00,0,rob ver 1B,2013-06-06 06:05:00,
2013-06-05 23:06:00,90.0,39.8,29.21,SSW,197,9.8,12.7,17,-99.99,,,0.00,0,rob ver 1B,2013-06-06 06:06:00,
2013-06-05 23:07:00,89.9,39.8,29.21,SSW,196,8.9,11.0,17,-99.99,,,0.00,0,rob ver 1B,2013-06-06 06:07:00,
2013-06-05 23:08:00,89.8,39.8,29.21,SSW,194,9.1,11.9,17,-99.99,,,0.00,0,rob ver 1B,2013-06-06 06:08:00,
2013-06-05 23:09:00,89.8,39.8,29.21,SSW,195,9.7,11.8,17,-99.99,,,0.00,0,rob ver 1B,2013-06-06 06:09:00,
2013-06-05 23:10:00,89.7,39.8,29.21,SSW,195,10.1,13.3,17,-99.99,,,0.00,0,rob ver 1B,2013-06-06 06:10:00,
2013-06-05 23:11:00,89.7,39.8,29.21,SSW,193,9.6,11.8,17,-99.99,,,0.00,0,rob ver 1B,2013-06-06 06:11:00,
2013-06-05 23:12:00,89.7,39.8,29.21,South,190,9.5,12.5,17,-99.99,,,0.00,0,rob ver 1B,2013-06-06 06:12:00,
2013-06-05 23:13:00,89.6,39.8,29.21,South,188,9.1,12.2,17,-99.99,,,0.00,0,rob ver 1B,2013-06-06 06:13:00,
2013-06-05 23:14:00,89.6,39.8,29.21,South,187,9.3,11.1,17,-99.99,,,0.00,0,rob ver 1B,2013-06-06 06:14:00,
2013-06-05 23:15:00,89.5,39.7,29.21,South,185,8.3,10.6,17,-99.99,,,0.00,0,rob ver 1B,2013-06-06 06:15:00,
2013-06-05 23:16:00,89.5,39.7,29.21,South,187,7.5,9.5,17,-99.99,,,0.00,0,rob ver 1B,2013-06-06 06:16:00,
2013-06-05 23:17:00,89.4,39.6,29.21,South,188,7.7,10.0,17,-99.99,,,0.00,0,rob ver 1B,2013-06-06 06:17:00,
2013-06-05 23:18:00,89.4,39.6,29.21,South,187,7.5,9.3,17,-99.99,,,0.00,0,rob ver 1B,2013-06-06 06:18:00,
2013-06-05 23:19:00,89.3,39.6,29.21,South,191,7.1,9.0,17,-99.99,,,0.00,0,rob ver 1B,2013-06-06 06:19:00,
2013-06-05 23:20:00,89.2,39.6,29.21,SSW,195,6.8,9.2,17,-99.99,,,0.00,0,rob ver 1B,2013-06-06 06:20:00,
2013-06-05 23:21:00,89.2,39.6,29.21,SSW,197,7.5,9.3,17,-99.99,,,0.00,0,rob ver 1B,2013-06-06 06:21:00,
2013-06-05 23:22:00,89.1,39.5,29.21,SSW,196,6.6,8.3,17,-99.99,,,0.00,0,rob ver 1B,2013-06-06 06:22:00,
2013-06-05 23:23:00,89.0,39.6,29.21,SSW,193,6.3,7.9,17,-99.99,,,0.00,0,rob ver 1B,2013-06-06 06:23:00,
2013-06-05 23:24:00,89.0,39.6,29.21,South,191,6.3,9.5,17,-99.99,,,0.00,0,rob ver 1B,2013-06-06 06:24:00,
2013-06-05 23:25:00,89.0,39.6,29.21,South,191,6.1,8.3,17,-99.99,,,0.00,0,rob ver 1B,2013-06-06 06:25:00,
2013-06-05 23:26:00,88.9,39.5,29.21,SSW,197,6.4,8.2,17,-99.99,,,0.00,0,rob ver 1B,2013-06-06 06:26:00,
2013-06-05 23:27:00,88.9,39.4,29.21,SSW,197,7.7,10.4,17,-99.99,,,0.00,0,rob ver 1B,2013-06-06 06:27:00,
2013-06-05 23:28:00,88.9,39.3,29.21,SSW,194,7.1,9.8,17,-99.99,,,0.00,0,rob ver 1B,2013-06-06 06:28:00,
2013-06-05 23:29:00,88.9,39.3,29.21,SSW,193,6.8,8.7,17,-99.99,,,0.00,0,rob ver 1B,2013-06-06 06:29:00,
2013-06-05 23:30:00,88.9,39.3,29.21,SSW,194,7.2,8.7,17,-99.99,,,0.00,0,rob ver 1B,2013-06-06 06:30:00,
2013-06-05 23:31:00,88.9,39.2,29.21,SSW,195,6.9,9.8,17,-99.99,,,0.00,0,rob ver 1B,2013-06-06 06:31:00,
2013-06-05 23:32:00,88.9,39.2,29.21,SSW,194,7.2,10.0,17,-99.99,,,0.00,0,rob ver 1B,2013-06-06 06:32:00,
2013-06-05 23:33:00,88.9,39.2,29.21,SSW,192,7.0,9.0,17,-99.99,,,0.00,0,rob ver 1B,2013-06-06 06:33:00,
2013-06-05 23:34:00,88.9,39.2,29.21,SSW,193,5.8,7.5,17,-99.99,,,0.00,0,rob ver 1B,2013-06-06 06:34:00,
2013-06-05 23:35:00,88.8,39.3,29.21,SSW,194,5.6,7.2,17,-99.99,,,0.00,0,rob ver 1B,2013-06-06 06:35:00,
2013-06-05 23:36:00,88.7,39.3,29.21,SSW,195,5.6,6.6,17,-99.99,,,0.00,0,rob ver 1B,2013-06-06 06:36:00,
2013-06-05 23:37:00,88.6,39.4,29.21,SSW,197,5.8,6.6,17,-99.99,,,0.00,0,rob ver 1B,2013-06-06 06:37:00,
2013-06-05 23:38:00,88.4,39.3,29.21,SSW,199,4.8,6.1,17,-99.99,,,0.00,0,rob ver 1B,2013-06-06 06:38:00,
2013-06-05 23:39:00,88.3,39.4,29.21,SSW,199,4.5,6.6,17,-99.99,,,0.00,0,rob ver 1B,2013-06-06 06:39:00,
2013-06-05 23:40:00,88.3,39.4,29.21,SSW,195,4.3,5.8,17,-99.99,,,0.00,0,rob ver 1B,2013-06-06 06:40:00,
2013-06-05 23:41:00,88.2,39.5,29.21,South,187,3.9,5.0,18,-99.99,,,0.00,0,rob ver 1B,2013-06-06 06:41:00,
2013-06-05 23:42:00,88.1,39.4,29.21,South,177,4.1,6.0,17,-99.99,,,0.00,0,rob ver 1B,2013-06-06 06:42:00,
2013-06-05 23:43:00,88.0,39.3,29.21,South,177,4.1,5.5,18,-99.99,,,0.00,0,rob ver 1B,2013-06-06 06:43:00,
2013-06-05 23:44:00,88.0,39.4,29.21,South,173,4.3,5.3,18,-99.99,,,0.00,0,rob ver 1B,2013-06-06 06:44:00,
2013-06-05 23:45:00,87.9,39.3,29.21,South,175,4.0,6.6,18,-99.99,,,0.00,0,rob ver 1B,2013-06-06 06:45:00,
2013-06-05 23:46:00,87.8,39.2,29.21,South,179,3.2,4.2,18,-99.99,,,0.00,0,rob ver 1B,2013-06-06 06:46:00,
2013-06-05 23:47:00,87.7,39.3,29.21,South,179,3.6,5.1,18,-99.99,,,0.00,0,rob ver 1B,2013-06-06 06:47:00,
2013-06-05 23:48:00,87.7,39.3,29.21,South,186,3.1,3.9,18,-99.99,,,0.00,0,rob ver 1B,2013-06-06 06:48:00,
2013-06-05 23:49:00,87.6,39.4,29.21,SSW,193,3.9,4.7,18,-99.99,,,0.00,0,rob ver 1B,2013-06-06 06:49:00,
2013-06-05 23:50:00,87.6,39.4,29.21,SSW,201,3.0,3.7,18,-99.99,,,0.00,0,rob ver 1B,2013-06-06 06:50:00,
2013-06-05 23:51:00,87.5,39.4,29.21,SSW,202,3.0,4.0,18,-99.99,,,0.00,0,rob ver 1B,2013-06-06 06:51:00,
2013-06-05 23:52:00,87.5,39.4,29.21,SSW,196,2.7,3.8,18,-99.99,,,0.00,0,rob ver 1B,2013-06-06 06:52:00,
2013-06-05 23:53:00,87.4,39.5,29.21,South,187,3.1,4.0,18,-99.99,,,0.00,0,rob ver 1B,2013-06-06 06:53:00,
2013-06-05 23:54:00,87.3,39.6,29.21,South,191,3.7,5.0,18,-99.99,,,0.00,0,rob ver 1B,2013-06-06 06:54:00,
2013-06-05 23:55:00,87.4,39.6,29.18,SSW,192,3.8,5.4,18,-99.99,,,0.00,0,rob ver 1B,2013-06-06 06:55:00,
2013-06-05 23:56:00,87.4,39.6,29.18,SSW,194,3.6,5.1,18,-99.99,,,0.00,0,rob ver 1B,2013-06-06 06:56:00,
2013-06-05 23:57:00,87.4,39.6,29.21,South,190,3.8,5.0,18,-99.99,,,0.00,0,rob ver 1B,2013-06-06 06:57:00,
2013-06-05 23:58:00,87.4,39.7,29.21,South,187,4.4,5.7,18,-99.99,,,0.00,0,rob ver 1B,2013-06-06 06:58:00,
2013-06-05 23:59:00,87.4,39.6,29.21,South,182,4.3,5.3,18,-99.99,,,0.00,0,rob ver 1B,2013-06-06 06:59:00,